<?xml version="1.0" encoding="UTF-8"?>
<gpx version="1.1" creator="2bulu-scraper" xmlns="http://www.topografix.com/GPX/1/1">
  <metadata><name>宜宾简湾</name><desc>source: 2bulu.com trackId=77977220; exported 2026-08-31T01:52:08.262Z</desc>
    <bounds minlat="28.9027544" minlon="104.1499332" maxlat="28.9206959" maxlon="104.1793823"/>
    <link href="https://www.2bulu.com/track/t-bdx0uF3%252BRp%252Fp%252FR2KBg5Tzw%253D%253D.htm"><text>2bulu 源页面</text></link>
  </metadata>
  <wpt lat="28.9199031" lon="104.1714783"><ele>389</ele><name>起点
        </name></wpt>
  <wpt lat="28.9202942" lon="104.1711305"><ele>384</ele><name>
        </name></wpt>
  <wpt lat="28.9202942" lon="104.1711305"><ele>384</ele><name>起点
        </name></wpt>
  <wpt lat="28.9204817" lon="104.1700312"><ele>391</ele><name>
        </name></wpt>
  <wpt lat="28.9206269" lon="104.1684051"><ele>400</ele><name>一直翻石头
        </name></wpt>
  <wpt lat="28.9205146" lon="104.1680366"><ele>399</ele><name>
        </name></wpt>
  <wpt lat="28.9148651" lon="104.162734"><ele>456</ele><name>
        </name></wpt>
  <wpt lat="28.9148651" lon="104.162734"><ele>456</ele><name>
        </name></wpt>
  <wpt lat="28.9148651" lon="104.162734"><ele>456</ele><name>
        </name></wpt>
  <wpt lat="28.9148651" lon="104.162734"><ele>456</ele><name>一直爬石头
        </name></wpt>
  <wpt lat="28.9140183" lon="104.1606961"><ele>492</ele><name>前方高空落石非常严重，亲眼看到掉下来轰隆隆的很危险，决定返回
        </name></wpt>
  <wpt lat="28.911931" lon="104.1564815"><ele>505</ele><name>继续，没有回头
        </name></wpt>
  <wpt lat="28.9104917" lon="104.1539866"><ele>523</ele><name>大坝
        </name></wpt>
  <wpt lat="28.9104549" lon="104.1539356"><ele>530</ele><name>
        </name></wpt>
  <wpt lat="28.9062051" lon="104.1525786"><ele>584</ele><name>
        </name></wpt>
  <wpt lat="28.9054074" lon="104.1524826"><ele>599</ele><name>
        </name></wpt>
  <wpt lat="28.9054057" lon="104.1524927"><ele>600</ele><name>
        </name></wpt>
  <wpt lat="28.9035393" lon="104.1500912"><ele>647</ele><name>
        </name></wpt>
  <wpt lat="28.9030373" lon="104.1514767"><ele>714</ele><name>
        </name></wpt>
  <wpt lat="28.9030373" lon="104.1514767"><ele>714</ele><name>
        </name></wpt>
  <wpt lat="28.9030373" lon="104.1514767"><ele>714</ele><name>
        </name></wpt>
  <wpt lat="28.9040595" lon="104.1544958"><ele>781</ele><name>
        </name></wpt>
  <wpt lat="28.9051998" lon="104.1553265"><ele>818</ele><name>
        </name></wpt>
  <wpt lat="28.9051998" lon="104.1553265"><ele>818</ele><name>
        </name></wpt>
  <wpt lat="28.9087612" lon="104.1554787"><ele>854</ele><name>
        </name></wpt>
  <wpt lat="28.9087612" lon="104.1554787"><ele>854</ele><name>塌方1
        </name></wpt>
  <wpt lat="28.9104493" lon="104.1572343"><ele>848</ele><name>
        </name></wpt>
  <wpt lat="28.9104493" lon="104.1572343"><ele>848</ele><name>
        </name></wpt>
  <trk><name>宜宾简湾</name>
      <trkseg>
        <trkpt lat="28.9198699" lon="104.1716793"><ele>391.21</ele><time>2026-01-15T17:06:44.000Z</time></trkpt>
        <trkpt lat="28.9198956" lon="104.1715892"><ele>391.21</ele><time>2026-01-15T17:07:16.000Z</time></trkpt>
        <trkpt lat="28.9199031" lon="104.1714783"><ele>390.13</ele><time>2026-01-15T17:07:30.000Z</time></trkpt>
        <trkpt lat="28.9199329" lon="104.1713622"><ele>389.44</ele><time>2026-01-15T17:08:00.000Z</time></trkpt>
        <trkpt lat="28.919964" lon="104.1712521"><ele>389.07</ele><time>2026-01-15T17:08:10.000Z</time></trkpt>
        <trkpt lat="28.9200316" lon="104.1711805"><ele>388.95</ele><time>2026-01-15T17:08:20.000Z</time></trkpt>
        <trkpt lat="28.920127" lon="104.171177"><ele>388.04</ele><time>2026-01-15T17:08:30.000Z</time></trkpt>
        <trkpt lat="28.9202251" lon="104.171161"><ele>387.53</ele><time>2026-01-15T17:08:40.000Z</time></trkpt>
        <trkpt lat="28.9202942" lon="104.1711305"><ele>386.52</ele><time>2026-01-15T17:08:48.000Z</time></trkpt>
        <trkpt lat="28.9203685" lon="104.1710842"><ele>385.27</ele><time>2026-01-15T17:09:28.000Z</time></trkpt>
        <trkpt lat="28.9204059" lon="104.1709963"><ele>383.5</ele><time>2026-01-15T17:09:42.000Z</time></trkpt>
        <trkpt lat="28.9204122" lon="104.1708797"><ele>382.76</ele><time>2026-01-15T17:10:00.000Z</time></trkpt>
        <trkpt lat="28.9204703" lon="104.1708113"><ele>382.13</ele><time>2026-01-15T17:10:20.000Z</time></trkpt>
        <trkpt lat="28.9204416" lon="104.1707269"><ele>382.77</ele><time>2026-01-15T17:11:02.000Z</time></trkpt>
        <trkpt lat="28.9204449" lon="104.1706195"><ele>382.68</ele><time>2026-01-15T17:11:20.000Z</time></trkpt>
        <trkpt lat="28.9204275" lon="104.1705085"><ele>383.27</ele><time>2026-01-15T17:11:40.000Z</time></trkpt>
        <trkpt lat="28.9204092" lon="104.1703996"><ele>383.22</ele><time>2026-01-15T17:11:56.000Z</time></trkpt>
        <trkpt lat="28.9203826" lon="104.1702968"><ele>384.71</ele><time>2026-01-15T17:12:08.000Z</time></trkpt>
        <trkpt lat="28.920424" lon="104.1702015"><ele>386.18</ele><time>2026-01-15T17:12:22.000Z</time></trkpt>
        <trkpt lat="28.9204413" lon="104.1700907"><ele>387.16</ele><time>2026-01-15T17:12:44.000Z</time></trkpt>
        <trkpt lat="28.9204326" lon="104.1700775"><ele>386.98</ele><time>2026-01-15T17:12:48.000Z</time></trkpt>
        <trkpt lat="28.9204817" lon="104.1700312"><ele>387.41</ele><time>2026-01-15T17:13:30.000Z</time></trkpt>
        <trkpt lat="28.9205483" lon="104.1699478"><ele>388.97</ele><time>2026-01-15T17:15:01.000Z</time></trkpt>
        <trkpt lat="28.920585" lon="104.1698469"><ele>390.02</ele><time>2026-01-15T17:15:27.000Z</time></trkpt>
        <trkpt lat="28.920627" lon="104.1697506"><ele>390.24</ele><time>2026-01-15T17:16:46.000Z</time></trkpt>
        <trkpt lat="28.9205744" lon="104.169661"><ele>391.8</ele><time>2026-01-15T17:17:04.000Z</time></trkpt>
        <trkpt lat="28.9205834" lon="104.1695595"><ele>391.68</ele><time>2026-01-15T17:17:24.000Z</time></trkpt>
        <trkpt lat="28.9206552" lon="104.1695003"><ele>392.86</ele><time>2026-01-15T17:17:42.000Z</time></trkpt>
        <trkpt lat="28.9206959" lon="104.1694117"><ele>393.63</ele><time>2026-01-15T17:18:16.000Z</time></trkpt>
        <trkpt lat="28.9206821" lon="104.1693169"><ele>393.94</ele><time>2026-01-15T17:18:34.000Z</time></trkpt>
        <trkpt lat="28.9206007" lon="104.1692842"><ele>393.91</ele><time>2026-01-15T17:18:48.000Z</time></trkpt>
        <trkpt lat="28.9205503" lon="104.1692"><ele>393.2</ele><time>2026-01-15T17:19:08.000Z</time></trkpt>
        <trkpt lat="28.9205576" lon="104.1690951"><ele>393.88</ele><time>2026-01-15T17:19:28.000Z</time></trkpt>
        <trkpt lat="28.9205019" lon="104.1690206"><ele>396.51</ele><time>2026-01-15T17:20:08.000Z</time></trkpt>
        <trkpt lat="28.9204728" lon="104.168918"><ele>395.88</ele><time>2026-01-15T17:20:26.000Z</time></trkpt>
        <trkpt lat="28.9205511" lon="104.1688386"><ele>396.03</ele><time>2026-01-15T17:21:36.000Z</time></trkpt>
        <trkpt lat="28.9205895" lon="104.1687281"><ele>396.33</ele><time>2026-01-15T17:21:52.000Z</time></trkpt>
        <trkpt lat="28.9205936" lon="104.1686113"><ele>397.65</ele><time>2026-01-15T17:22:06.000Z</time></trkpt>
        <trkpt lat="28.9206274" lon="104.1685133"><ele>399.76</ele><time>2026-01-15T17:22:18.000Z</time></trkpt>
        <trkpt lat="28.9206269" lon="104.1684051"><ele>400.39</ele><time>2026-01-15T17:22:32.000Z</time></trkpt>
        <trkpt lat="28.9206493" lon="104.1683002"><ele>400.35</ele><time>2026-01-15T17:24:25.000Z</time></trkpt>
        <trkpt lat="28.920568" lon="104.1682394"><ele>401.56</ele><time>2026-01-15T17:24:45.000Z</time></trkpt>
        <trkpt lat="28.9205279" lon="104.1681414"><ele>400.27</ele><time>2026-01-15T17:24:57.000Z</time></trkpt>
        <trkpt lat="28.9205146" lon="104.1680366"><ele>399.64</ele><time>2026-01-15T17:25:11.000Z</time></trkpt>
        <trkpt lat="28.9204574" lon="104.1679501"><ele>399.47</ele><time>2026-01-15T17:26:29.000Z</time></trkpt>
        <trkpt lat="28.9203766" lon="104.1678986"><ele>400.07</ele><time>2026-01-15T17:26:47.000Z</time></trkpt>
        <trkpt lat="28.9202987" lon="104.1678418"><ele>399.96</ele><time>2026-01-15T17:27:03.000Z</time></trkpt>
        <trkpt lat="28.9202365" lon="104.167763"><ele>400.45</ele><time>2026-01-15T17:27:21.000Z</time></trkpt>
        <trkpt lat="28.920152" lon="104.167754"><ele>400.07</ele><time>2026-01-15T17:27:41.000Z</time></trkpt>
        <trkpt lat="28.9200599" lon="104.167768"><ele>401.29</ele><time>2026-01-15T17:28:09.000Z</time></trkpt>
        <trkpt lat="28.9199675" lon="104.1677598"><ele>401.97</ele><time>2026-01-15T17:28:23.000Z</time></trkpt>
        <trkpt lat="28.9198767" lon="104.1677424"><ele>402.69</ele><time>2026-01-15T17:28:45.000Z</time></trkpt>
        <trkpt lat="28.9197826" lon="104.1677289"><ele>402.79</ele><time>2026-01-15T17:29:01.000Z</time></trkpt>
        <trkpt lat="28.9197427" lon="104.1676426"><ele>401.91</ele><time>2026-01-15T17:29:23.000Z</time></trkpt>
        <trkpt lat="28.9196701" lon="104.1676007"><ele>401.13</ele><time>2026-01-15T17:29:43.000Z</time></trkpt>
        <trkpt lat="28.9195966" lon="104.1676438"><ele>400.62</ele><time>2026-01-15T17:30:13.000Z</time></trkpt>
        <trkpt lat="28.9195374" lon="104.1677303"><ele>401.01</ele><time>2026-01-15T17:30:49.000Z</time></trkpt>
        <trkpt lat="28.9195088" lon="104.1678389"><ele>400.21</ele><time>2026-01-15T17:31:21.000Z</time></trkpt>
        <trkpt lat="28.9194315" lon="104.1678523"><ele>400.82</ele><time>2026-01-15T17:31:49.000Z</time></trkpt>
        <trkpt lat="28.9193487" lon="104.167894"><ele>401.27</ele><time>2026-01-15T17:32:28.000Z</time></trkpt>
        <trkpt lat="28.9192699" lon="104.1679493"><ele>402.3</ele><time>2026-01-15T17:32:40.000Z</time></trkpt>
        <trkpt lat="28.919186" lon="104.1680042"><ele>403.32</ele><time>2026-01-15T17:33:14.000Z</time></trkpt>
        <trkpt lat="28.9191084" lon="104.1680685"><ele>404.02</ele><time>2026-01-15T17:33:38.000Z</time></trkpt>
        <trkpt lat="28.9190229" lon="104.1681265"><ele>404.31</ele><time>2026-01-15T17:34:18.000Z</time></trkpt>
        <trkpt lat="28.9189377" lon="104.1681759"><ele>404.45</ele><time>2026-01-15T17:34:46.000Z</time></trkpt>
        <trkpt lat="28.918841" lon="104.1682042"><ele>403.9</ele><time>2026-01-15T17:35:48.000Z</time></trkpt>
        <trkpt lat="28.9187879" lon="104.1682887"><ele>401.73</ele><time>2026-01-15T17:36:18.000Z</time></trkpt>
        <trkpt lat="28.9187714" lon="104.1683947"><ele>400.82</ele><time>2026-01-15T17:36:42.000Z</time></trkpt>
        <trkpt lat="28.9187164" lon="104.1684772"><ele>401.52</ele><time>2026-01-15T17:37:04.000Z</time></trkpt>
        <trkpt lat="28.9186456" lon="104.1685482"><ele>402.54</ele><time>2026-01-15T17:37:32.000Z</time></trkpt>
        <trkpt lat="28.9185849" lon="104.1686394"><ele>404.34</ele><time>2026-01-15T17:37:48.000Z</time></trkpt>
        <trkpt lat="28.9184917" lon="104.1686744"><ele>404.38</ele><time>2026-01-15T17:38:08.000Z</time></trkpt>
        <trkpt lat="28.9183843" lon="104.1686859"><ele>405.02</ele><time>2026-01-15T17:39:16.000Z</time></trkpt>
        <trkpt lat="28.9182985" lon="104.1687163"><ele>406.07</ele><time>2026-01-15T17:39:32.000Z</time></trkpt>
        <trkpt lat="28.9182806" lon="104.1686221"><ele>405.83</ele><time>2026-01-15T17:40:18.000Z</time></trkpt>
        <trkpt lat="28.9182097" lon="104.168599"><ele>405.76</ele><time>2026-01-15T17:40:34.000Z</time></trkpt>
        <trkpt lat="28.9181221" lon="104.1685763"><ele>406.87</ele><time>2026-01-15T17:40:56.000Z</time></trkpt>
        <trkpt lat="28.9180189" lon="104.1685498"><ele>408.38</ele><time>2026-01-15T17:42:10.000Z</time></trkpt>
        <trkpt lat="28.9179489" lon="104.1685499"><ele>410.59</ele><time>2026-01-15T17:42:26.000Z</time></trkpt>
        <trkpt lat="28.917845" lon="104.1685365"><ele>409.66</ele><time>2026-01-15T17:42:34.000Z</time></trkpt>
        <trkpt lat="28.9178186" lon="104.1684394"><ele>408.67</ele><time>2026-01-15T17:43:28.000Z</time></trkpt>
        <trkpt lat="28.9177938" lon="104.1683186"><ele>410.6</ele><time>2026-01-15T17:44:10.000Z</time></trkpt>
        <trkpt lat="28.9177397" lon="104.1682073"><ele>414.52</ele><time>2026-01-15T17:44:40.000Z</time></trkpt>
        <trkpt lat="28.9177642" lon="104.1680931"><ele>418.17</ele><time>2026-01-15T17:45:08.000Z</time></trkpt>
        <trkpt lat="28.9178121" lon="104.1679899"><ele>422.06</ele><time>2026-01-15T17:45:48.000Z</time></trkpt>
        <trkpt lat="28.9178688" lon="104.1678922"><ele>424.29</ele><time>2026-01-15T17:45:58.000Z</time></trkpt>
        <trkpt lat="28.9178484" lon="104.1677902"><ele>427.82</ele><time>2026-01-15T17:46:08.000Z</time></trkpt>
        <trkpt lat="28.9178873" lon="104.1677019"><ele>431.72</ele><time>2026-01-15T17:46:28.000Z</time></trkpt>
        <trkpt lat="28.9179394" lon="104.1676098"><ele>434.61</ele><time>2026-01-15T17:47:00.000Z</time></trkpt>
        <trkpt lat="28.9179842" lon="104.1675137"><ele>434.78</ele><time>2026-01-15T17:47:24.000Z</time></trkpt>
        <trkpt lat="28.9179749" lon="104.1674147"><ele>437.38</ele><time>2026-01-15T17:48:04.000Z</time></trkpt>
        <trkpt lat="28.9179041" lon="104.1673539"><ele>437.57</ele><time>2026-01-15T17:48:14.000Z</time></trkpt>
        <trkpt lat="28.9178674" lon="104.1672596"><ele>437.39</ele><time>2026-01-15T17:48:32.000Z</time></trkpt>
        <trkpt lat="28.9179231" lon="104.1671698"><ele>435.99</ele><time>2026-01-15T17:50:22.000Z</time></trkpt>
        <trkpt lat="28.9178705" lon="104.1670713"><ele>436.73</ele><time>2026-01-15T17:50:34.000Z</time></trkpt>
        <trkpt lat="28.9178442" lon="104.1670563"><ele>437.36</ele><time>2026-01-15T17:50:46.000Z</time></trkpt>
        <trkpt lat="28.9177684" lon="104.1670495"><ele>437.64</ele><time>2026-01-15T17:51:12.000Z</time></trkpt>
        <trkpt lat="28.9177688" lon="104.1669765"><ele>435.2</ele><time>2026-01-15T17:51:28.000Z</time></trkpt>
        <trkpt lat="28.9177788" lon="104.1668735"><ele>432.52</ele><time>2026-01-15T17:51:52.000Z</time></trkpt>
        <trkpt lat="28.9178229" lon="104.1667771"><ele>431.08</ele><time>2026-01-15T17:52:42.000Z</time></trkpt>
        <trkpt lat="28.917881" lon="104.1666842"><ele>430.26</ele><time>2026-01-15T17:53:04.000Z</time></trkpt>
        <trkpt lat="28.9179421" lon="104.1665852"><ele>431.72</ele><time>2026-01-15T17:54:06.000Z</time></trkpt>
        <trkpt lat="28.9179405" lon="104.1664771"><ele>429.45</ele><time>2026-01-15T17:54:24.000Z</time></trkpt>
        <trkpt lat="28.9180181" lon="104.1664223"><ele>428.13</ele><time>2026-01-15T17:54:38.000Z</time></trkpt>
        <trkpt lat="28.9180002" lon="104.1663413"><ele>427.77</ele><time>2026-01-15T17:55:28.000Z</time></trkpt>
        <trkpt lat="28.9180217" lon="104.1663175"><ele>427.66</ele><time>2026-01-15T17:55:34.000Z</time></trkpt>
        <trkpt lat="28.9180505" lon="104.1662178"><ele>427.37</ele><time>2026-01-15T17:56:44.000Z</time></trkpt>
        <trkpt lat="28.9180429" lon="104.1660787"><ele>427.89</ele><time>2026-01-15T17:57:28.000Z</time></trkpt>
        <trkpt lat="28.9180466" lon="104.1660587"><ele>429.33</ele><time>2026-01-15T17:57:30.000Z</time></trkpt>
        <trkpt lat="28.918118" lon="104.1660159"><ele>430.31</ele><time>2026-01-15T17:57:50.000Z</time></trkpt>
        <trkpt lat="28.9181448" lon="104.166005"><ele>432.99</ele><time>2026-01-15T17:57:58.000Z</time></trkpt>
        <trkpt lat="28.9181455" lon="104.1659277"><ele>434.2</ele><time>2026-01-15T17:58:16.000Z</time></trkpt>
        <trkpt lat="28.918204" lon="104.1658639"><ele>437.11</ele><time>2026-01-15T17:58:40.000Z</time></trkpt>
        <trkpt lat="28.918217" lon="104.1657621"><ele>438.71</ele><time>2026-01-15T17:59:04.000Z</time></trkpt>
        <trkpt lat="28.9181637" lon="104.1656541"><ele>438.11</ele><time>2026-01-15T18:00:26.000Z</time></trkpt>
        <trkpt lat="28.9181354" lon="104.165546"><ele>437.99</ele><time>2026-01-15T18:00:46.000Z</time></trkpt>
        <trkpt lat="28.918146" lon="104.1654352"><ele>436.35</ele><time>2026-01-15T18:01:10.000Z</time></trkpt>
        <trkpt lat="28.918115" lon="104.1653386"><ele>433.96</ele><time>2026-01-15T18:01:26.000Z</time></trkpt>
        <trkpt lat="28.9180709" lon="104.1652489"><ele>433.98</ele><time>2026-01-15T18:01:44.000Z</time></trkpt>
        <trkpt lat="28.9179996" lon="104.1651674"><ele>434.13</ele><time>2026-01-15T18:02:22.000Z</time></trkpt>
        <trkpt lat="28.9179862" lon="104.1650989"><ele>432.69</ele><time>2026-01-15T18:02:32.000Z</time></trkpt>
        <trkpt lat="28.9179342" lon="104.1650314"><ele>433.81</ele><time>2026-01-15T18:03:02.000Z</time></trkpt>
        <trkpt lat="28.9178919" lon="104.1649452"><ele>434.27</ele><time>2026-01-15T18:03:22.000Z</time></trkpt>
        <trkpt lat="28.9178471" lon="104.1648516"><ele>434.59</ele><time>2026-01-15T18:03:40.000Z</time></trkpt>
        <trkpt lat="28.9177692" lon="104.1648088"><ele>434.34</ele><time>2026-01-15T18:04:04.000Z</time></trkpt>
        <trkpt lat="28.9177045" lon="104.1647372"><ele>434.52</ele><time>2026-01-15T18:04:24.000Z</time></trkpt>
        <trkpt lat="28.9176368" lon="104.1646649"><ele>434</ele><time>2026-01-15T18:04:42.000Z</time></trkpt>
        <trkpt lat="28.9175507" lon="104.1646766"><ele>435.01</ele><time>2026-01-15T18:05:02.000Z</time></trkpt>
        <trkpt lat="28.9174593" lon="104.1646745"><ele>436.14</ele><time>2026-01-15T18:05:14.000Z</time></trkpt>
        <trkpt lat="28.9173658" lon="104.1646794"><ele>439.59</ele><time>2026-01-15T18:05:38.000Z</time></trkpt>
        <trkpt lat="28.917273" lon="104.1646961"><ele>443.77</ele><time>2026-01-15T18:06:06.000Z</time></trkpt>
        <trkpt lat="28.9171795" lon="104.1647254"><ele>445.02</ele><time>2026-01-15T18:06:24.000Z</time></trkpt>
        <trkpt lat="28.9171081" lon="104.1647995"><ele>447.87</ele><time>2026-01-15T18:07:34.000Z</time></trkpt>
        <trkpt lat="28.9170037" lon="104.1648007"><ele>447.58</ele><time>2026-01-15T18:08:08.000Z</time></trkpt>
        <trkpt lat="28.9169775" lon="104.1648091"><ele>446.45</ele><time>2026-01-15T18:08:10.000Z</time></trkpt>
        <trkpt lat="28.9169123" lon="104.1647606"><ele>445.81</ele><time>2026-01-15T18:10:17.000Z</time></trkpt>
        <trkpt lat="28.9168222" lon="104.1647317"><ele>446.96</ele><time>2026-01-15T18:10:41.000Z</time></trkpt>
        <trkpt lat="28.9167223" lon="104.1647136"><ele>447.56</ele><time>2026-01-15T18:11:15.000Z</time></trkpt>
        <trkpt lat="28.9166611" lon="104.1646359"><ele>446.58</ele><time>2026-01-15T18:11:33.000Z</time></trkpt>
        <trkpt lat="28.9166358" lon="104.1645896"><ele>446.98</ele><time>2026-01-15T18:11:39.000Z</time></trkpt>
        <trkpt lat="28.9166181" lon="104.1645033"><ele>446.96</ele><time>2026-01-15T18:11:57.000Z</time></trkpt>
        <trkpt lat="28.9165765" lon="104.1644159"><ele>448.04</ele><time>2026-01-15T18:12:51.000Z</time></trkpt>
        <trkpt lat="28.9165089" lon="104.1643375"><ele>446.01</ele><time>2026-01-15T18:13:05.000Z</time></trkpt>
        <trkpt lat="28.9164201" lon="104.164344"><ele>446.03</ele><time>2026-01-15T18:13:29.000Z</time></trkpt>
        <trkpt lat="28.9163204" lon="104.1643601"><ele>442.92</ele><time>2026-01-15T18:13:41.000Z</time></trkpt>
        <trkpt lat="28.9162203" lon="104.1643549"><ele>440.74</ele><time>2026-01-15T18:13:57.000Z</time></trkpt>
        <trkpt lat="28.9161319" lon="104.1643025"><ele>438.64</ele><time>2026-01-15T18:14:11.000Z</time></trkpt>
        <trkpt lat="28.9160834" lon="104.1642035"><ele>438.88</ele><time>2026-01-15T18:14:23.000Z</time></trkpt>
        <trkpt lat="28.9160083" lon="104.1641566"><ele>439.92</ele><time>2026-01-15T18:14:43.000Z</time></trkpt>
        <trkpt lat="28.9159477" lon="104.1640855"><ele>439.15</ele><time>2026-01-15T18:15:03.000Z</time></trkpt>
        <trkpt lat="28.9158932" lon="104.1639948"><ele>440.59</ele><time>2026-01-15T18:15:17.000Z</time></trkpt>
        <trkpt lat="28.9158249" lon="104.1639239"><ele>442.37</ele><time>2026-01-15T18:15:41.000Z</time></trkpt>
        <trkpt lat="28.91576" lon="104.1638415"><ele>443.09</ele><time>2026-01-15T18:16:03.000Z</time></trkpt>
        <trkpt lat="28.9157097" lon="104.1637444"><ele>443.61</ele><time>2026-01-15T18:16:19.000Z</time></trkpt>
        <trkpt lat="28.9156357" lon="104.1637479"><ele>445.48</ele><time>2026-01-15T18:16:39.000Z</time></trkpt>
        <trkpt lat="28.9155611" lon="104.163709"><ele>444.54</ele><time>2026-01-15T18:16:53.000Z</time></trkpt>
        <trkpt lat="28.9154696" lon="104.1636747"><ele>443.15</ele><time>2026-01-15T18:17:07.000Z</time></trkpt>
        <trkpt lat="28.915382" lon="104.1636211"><ele>441.32</ele><time>2026-01-15T18:17:25.000Z</time></trkpt>
        <trkpt lat="28.9153299" lon="104.1635341"><ele>442.74</ele><time>2026-01-15T18:17:47.000Z</time></trkpt>
        <trkpt lat="28.9152643" lon="104.1634569"><ele>446.21</ele><time>2026-01-15T18:17:59.000Z</time></trkpt>
        <trkpt lat="28.915214" lon="104.1633853"><ele>448.5</ele><time>2026-01-15T18:18:19.000Z</time></trkpt>
        <trkpt lat="28.9151835" lon="104.1632903"><ele>450.79</ele><time>2026-01-15T18:18:39.000Z</time></trkpt>
        <trkpt lat="28.9151269" lon="104.1632149"><ele>454.65</ele><time>2026-01-15T18:19:07.000Z</time></trkpt>
        <trkpt lat="28.9150758" lon="104.1631244"><ele>455.11</ele><time>2026-01-15T18:19:33.000Z</time></trkpt>
        <trkpt lat="28.915057" lon="104.1630203"><ele>455.33</ele><time>2026-01-15T18:19:45.000Z</time></trkpt>
        <trkpt lat="28.9150498" lon="104.1629154"><ele>457.77</ele><time>2026-01-15T18:20:39.000Z</time></trkpt>
        <trkpt lat="28.9149769" lon="104.1628881"><ele>457.64</ele><time>2026-01-15T18:20:55.000Z</time></trkpt>
        <trkpt lat="28.9149041" lon="104.1628251"><ele>456.75</ele><time>2026-01-15T18:21:29.000Z</time></trkpt>
        <trkpt lat="28.9148651" lon="104.162734"><ele>456.15</ele><time>2026-01-15T18:21:59.000Z</time></trkpt>
        <trkpt lat="28.9148164" lon="104.1626328"><ele>455.93</ele><time>2026-01-15T18:23:51.000Z</time></trkpt>
        <trkpt lat="28.9148338" lon="104.1625166"><ele>456.56</ele><time>2026-01-15T18:24:09.000Z</time></trkpt>
        <trkpt lat="28.914784" lon="104.1624354"><ele>459.48</ele><time>2026-01-15T18:24:33.000Z</time></trkpt>
        <trkpt lat="28.914695" lon="104.1623732"><ele>460.65</ele><time>2026-01-15T18:25:51.000Z</time></trkpt>
        <trkpt lat="28.9146445" lon="104.1622775"><ele>462.37</ele><time>2026-01-15T18:26:09.000Z</time></trkpt>
        <trkpt lat="28.9146332" lon="104.1621704"><ele>462.35</ele><time>2026-01-15T18:26:43.000Z</time></trkpt>
        <trkpt lat="28.9146805" lon="104.1622066"><ele>462.32</ele><time>2026-01-15T18:26:59.000Z</time></trkpt>
        <trkpt lat="28.9147008" lon="104.162231"><ele>460.16</ele><time>2026-01-15T18:27:01.000Z</time></trkpt>
        <trkpt lat="28.9147636" lon="104.16216"><ele>459.12</ele><time>2026-01-15T18:28:13.000Z</time></trkpt>
        <trkpt lat="28.9147234" lon="104.1621219"><ele>461.94</ele><time>2026-01-15T18:28:19.000Z</time></trkpt>
        <trkpt lat="28.9146781" lon="104.1620401"><ele>464.67</ele><time>2026-01-15T18:28:45.000Z</time></trkpt>
        <trkpt lat="28.9146605" lon="104.1620231"><ele>465.86</ele><time>2026-01-15T18:28:47.000Z</time></trkpt>
        <trkpt lat="28.9146276" lon="104.1620948"><ele>466.34</ele><time>2026-01-15T18:29:05.000Z</time></trkpt>
        <trkpt lat="28.9146294" lon="104.1621397"><ele>468.24</ele><time>2026-01-15T18:29:09.000Z</time></trkpt>
        <trkpt lat="28.9146598" lon="104.1620696"><ele>469.62</ele><time>2026-01-15T18:29:29.000Z</time></trkpt>
        <trkpt lat="28.9146828" lon="104.1620113"><ele>468.41</ele><time>2026-01-15T18:29:43.000Z</time></trkpt>
        <trkpt lat="28.9146204" lon="104.1620727"><ele>471.34</ele><time>2026-01-15T18:31:27.000Z</time></trkpt>
        <trkpt lat="28.9146298" lon="104.1619511"><ele>472.01</ele><time>2026-01-15T18:32:07.000Z</time></trkpt>
        <trkpt lat="28.9145783" lon="104.1619728"><ele>468.98</ele><time>2026-01-15T18:32:25.000Z</time></trkpt>
        <trkpt lat="28.9145477" lon="104.1619023"><ele>467.58</ele><time>2026-01-15T18:32:55.000Z</time></trkpt>
        <trkpt lat="28.914607" lon="104.1619021"><ele>467.98</ele><time>2026-01-15T18:33:33.000Z</time></trkpt>
        <trkpt lat="28.9146382" lon="104.1618148"><ele>467.68</ele><time>2026-01-15T18:34:49.000Z</time></trkpt>
        <trkpt lat="28.9146273" lon="104.1616998"><ele>468.79</ele><time>2026-01-15T18:35:01.000Z</time></trkpt>
        <trkpt lat="28.914677" lon="104.1616174"><ele>469.02</ele><time>2026-01-15T18:35:13.000Z</time></trkpt>
        <trkpt lat="28.9147477" lon="104.1615436"><ele>470.64</ele><time>2026-01-15T18:35:29.000Z</time></trkpt>
        <trkpt lat="28.9148467" lon="104.1615888"><ele>469.81</ele><time>2026-01-15T18:38:57.000Z</time></trkpt>
        <trkpt lat="28.9149256" lon="104.1615393"><ele>469.04</ele><time>2026-01-15T18:41:39.000Z</time></trkpt>
        <trkpt lat="28.9148317" lon="104.1615659"><ele>466.01</ele><time>2026-01-15T18:46:21.000Z</time></trkpt>
        <trkpt lat="28.9147189" lon="104.1616057"><ele>465.67</ele><time>2026-01-15T18:46:29.000Z</time></trkpt>
        <trkpt lat="28.9147716" lon="104.1615168"><ele>467.94</ele><time>2026-01-15T18:48:03.000Z</time></trkpt>
        <trkpt lat="28.9147459" lon="104.1614176"><ele>470.34</ele><time>2026-01-15T18:48:17.000Z</time></trkpt>
        <trkpt lat="28.9147424" lon="104.1613137"><ele>473.19</ele><time>2026-01-15T18:48:29.000Z</time></trkpt>
        <trkpt lat="28.9146893" lon="104.1612828"><ele>475.04</ele><time>2026-01-15T18:48:45.000Z</time></trkpt>
        <trkpt lat="28.914597" lon="104.1612788"><ele>475.49</ele><time>2026-01-15T18:49:35.000Z</time></trkpt>
        <trkpt lat="28.9144962" lon="104.161261"><ele>473.64</ele><time>2026-01-15T18:49:55.000Z</time></trkpt>
        <trkpt lat="28.9144476" lon="104.1612681"><ele>473.27</ele><time>2026-01-15T18:50:01.000Z</time></trkpt>
        <trkpt lat="28.9144591" lon="104.1611852"><ele>472.99</ele><time>2026-01-15T18:50:45.000Z</time></trkpt>
        <trkpt lat="28.9144501" lon="104.1611119"><ele>472.66</ele><time>2026-01-15T18:50:53.000Z</time></trkpt>
        <trkpt lat="28.914397" lon="104.1610328"><ele>472.95</ele><time>2026-01-15T18:51:45.000Z</time></trkpt>
        <trkpt lat="28.9143553" lon="104.161024"><ele>473.29</ele><time>2026-01-15T18:51:57.000Z</time></trkpt>
        <trkpt lat="28.9143605" lon="104.1609507"><ele>474.52</ele><time>2026-01-15T18:52:17.000Z</time></trkpt>
        <trkpt lat="28.9143637" lon="104.1609196"><ele>475.43</ele><time>2026-01-15T18:52:25.000Z</time></trkpt>
        <trkpt lat="28.9143121" lon="104.1608582"><ele>475.54</ele><time>2026-01-15T18:53:06.000Z</time></trkpt>
        <trkpt lat="28.914221" lon="104.1608477"><ele>474.81</ele><time>2026-01-15T18:53:20.000Z</time></trkpt>
        <trkpt lat="28.9141155" lon="104.1608022"><ele>473.53</ele><time>2026-01-15T18:55:24.000Z</time></trkpt>
        <trkpt lat="28.9140482" lon="104.1607152"><ele>476.48</ele><time>2026-01-15T18:56:28.000Z</time></trkpt>
        <trkpt lat="28.9139793" lon="104.1606454"><ele>479.93</ele><time>2026-01-15T18:56:52.000Z</time></trkpt>
        <trkpt lat="28.9139233" lon="104.1605645"><ele>482.34</ele><time>2026-01-15T18:57:14.000Z</time></trkpt>
        <trkpt lat="28.9139113" lon="104.160517"><ele>482.88</ele><time>2026-01-15T18:57:20.000Z</time></trkpt>
        <trkpt lat="28.9139616" lon="104.1604218"><ele>483.55</ele><time>2026-01-15T18:59:04.000Z</time></trkpt>
        <trkpt lat="28.9140571" lon="104.1604359"><ele>482.75</ele><time>2026-01-15T19:00:50.000Z</time></trkpt>
        <trkpt lat="28.913971" lon="104.1604915"><ele>481.33</ele><time>2026-01-15T19:01:12.000Z</time></trkpt>
        <trkpt lat="28.9139591" lon="104.1604754"><ele>482.64</ele><time>2026-01-15T19:01:18.000Z</time></trkpt>
        <trkpt lat="28.9139379" lon="104.1603894"><ele>483.81</ele><time>2026-01-15T19:01:30.000Z</time></trkpt>
        <trkpt lat="28.9139006" lon="104.1603606"><ele>482.2</ele><time>2026-01-15T19:01:46.000Z</time></trkpt>
        <trkpt lat="28.9138195" lon="104.1602773"><ele>481.34</ele><time>2026-01-15T19:04:22.000Z</time></trkpt>
        <trkpt lat="28.9138841" lon="104.1603488"><ele>480.31</ele><time>2026-01-15T19:06:20.000Z</time></trkpt>
        <trkpt lat="28.9138906" lon="104.1603624"><ele>481.93</ele><time>2026-01-15T19:06:22.000Z</time></trkpt>
        <trkpt lat="28.9139657" lon="104.1603874"><ele>482.33</ele><time>2026-01-15T19:07:12.000Z</time></trkpt>
        <trkpt lat="28.9140514" lon="104.1604445"><ele>483.17</ele><time>2026-01-15T19:07:40.000Z</time></trkpt>
        <trkpt lat="28.914096" lon="104.1605505"><ele>485.16</ele><time>2026-01-15T19:07:50.000Z</time></trkpt>
        <trkpt lat="28.9140304" lon="104.1605895"><ele>489.56</ele><time>2026-01-15T19:08:34.000Z</time></trkpt>
        <trkpt lat="28.9139671" lon="104.1606653"><ele>489.72</ele><time>2026-01-15T19:09:04.000Z</time></trkpt>
        <trkpt lat="28.9140183" lon="104.1606961"><ele>489.8</ele><time>2026-01-15T19:09:24.000Z</time></trkpt>
        <trkpt lat="28.9139615" lon="104.1606399"><ele>490.81</ele><time>2026-01-15T19:15:03.000Z</time></trkpt>
        <trkpt lat="28.9139344" lon="104.1605407"><ele>489.87</ele><time>2026-01-15T19:15:19.000Z</time></trkpt>
        <trkpt lat="28.9139858" lon="104.1604637"><ele>488.64</ele><time>2026-01-15T19:15:41.000Z</time></trkpt>
        <trkpt lat="28.9140223" lon="104.1603734"><ele>487.04</ele><time>2026-01-15T19:16:01.000Z</time></trkpt>
        <trkpt lat="28.9139591" lon="104.1603309"><ele>485.46</ele><time>2026-01-15T19:16:17.000Z</time></trkpt>
        <trkpt lat="28.9138934" lon="104.1602475"><ele>483.9</ele><time>2026-01-15T19:16:35.000Z</time></trkpt>
        <trkpt lat="28.9137887" lon="104.1601947"><ele>480.53</ele><time>2026-01-15T19:16:45.000Z</time></trkpt>
        <trkpt lat="28.91377" lon="104.1600994"><ele>478.02</ele><time>2026-01-15T19:16:55.000Z</time></trkpt>
        <trkpt lat="28.9138075" lon="104.1599904"><ele>477.4</ele><time>2026-01-15T19:17:11.000Z</time></trkpt>
        <trkpt lat="28.9138248" lon="104.1598764"><ele>477.26</ele><time>2026-01-15T19:17:25.000Z</time></trkpt>
        <trkpt lat="28.9138014" lon="104.159769"><ele>477.44</ele><time>2026-01-15T19:17:35.000Z</time></trkpt>
        <trkpt lat="28.9137871" lon="104.159655"><ele>479.37</ele><time>2026-01-15T19:17:55.000Z</time></trkpt>
        <trkpt lat="28.913786" lon="104.1595463"><ele>480.6</ele><time>2026-01-15T19:18:27.000Z</time></trkpt>
        <trkpt lat="28.9137487" lon="104.159452"><ele>480.19</ele><time>2026-01-15T19:19:01.000Z</time></trkpt>
        <trkpt lat="28.9137839" lon="104.1593684"><ele>481.87</ele><time>2026-01-15T19:19:19.000Z</time></trkpt>
        <trkpt lat="28.9137198" lon="104.1593358"><ele>484.8</ele><time>2026-01-15T19:19:41.000Z</time></trkpt>
        <trkpt lat="28.913661" lon="104.1592594"><ele>485.57</ele><time>2026-01-15T19:19:57.000Z</time></trkpt>
        <trkpt lat="28.9136428" lon="104.159153"><ele>486.45</ele><time>2026-01-15T19:20:11.000Z</time></trkpt>
        <trkpt lat="28.913644" lon="104.1590325"><ele>487.13</ele><time>2026-01-15T19:20:29.000Z</time></trkpt>
        <trkpt lat="28.9136684" lon="104.1589175"><ele>485.28</ele><time>2026-01-15T19:20:41.000Z</time></trkpt>
        <trkpt lat="28.913643" lon="104.158852"><ele>485.29</ele><time>2026-01-15T19:20:57.000Z</time></trkpt>
        <trkpt lat="28.9136331" lon="104.1587569"><ele>485.97</ele><time>2026-01-15T19:21:19.000Z</time></trkpt>
        <trkpt lat="28.9136419" lon="104.1586519"><ele>485.68</ele><time>2026-01-15T19:21:31.000Z</time></trkpt>
        <trkpt lat="28.9135911" lon="104.1585656"><ele>485.35</ele><time>2026-01-15T19:21:45.000Z</time></trkpt>
        <trkpt lat="28.9136114" lon="104.1584729"><ele>484.62</ele><time>2026-01-15T19:21:59.000Z</time></trkpt>
        <trkpt lat="28.9136043" lon="104.1583718"><ele>482.9</ele><time>2026-01-15T19:22:11.000Z</time></trkpt>
        <trkpt lat="28.9135197" lon="104.1583401"><ele>481.08</ele><time>2026-01-15T19:22:15.000Z</time></trkpt>
        <trkpt lat="28.9134918" lon="104.1582794"><ele>480.85</ele><time>2026-01-15T19:22:27.000Z</time></trkpt>
        <trkpt lat="28.9134335" lon="104.1581939"><ele>481.54</ele><time>2026-01-15T19:23:13.000Z</time></trkpt>
        <trkpt lat="28.9134263" lon="104.1581713"><ele>483.54</ele><time>2026-01-15T19:23:15.000Z</time></trkpt>
        <trkpt lat="28.9134964" lon="104.1582739"><ele>485</ele><time>2026-01-15T19:24:25.000Z</time></trkpt>
        <trkpt lat="28.9135963" lon="104.1582952"><ele>482.12</ele><time>2026-01-15T19:24:33.000Z</time></trkpt>
        <trkpt lat="28.9135954" lon="104.1584084"><ele>481.13</ele><time>2026-01-15T19:24:43.000Z</time></trkpt>
        <trkpt lat="28.913509" lon="104.1584418"><ele>482.63</ele><time>2026-01-15T19:24:55.000Z</time></trkpt>
        <trkpt lat="28.9134236" lon="104.1583678"><ele>483.01</ele><time>2026-01-15T19:25:03.000Z</time></trkpt>
        <trkpt lat="28.9133475" lon="104.1582654"><ele>484.57</ele><time>2026-01-15T19:25:15.000Z</time></trkpt>
        <trkpt lat="28.9133691" lon="104.1581688"><ele>488.14</ele><time>2026-01-15T19:25:27.000Z</time></trkpt>
        <trkpt lat="28.9134498" lon="104.1581183"><ele>490.13</ele><time>2026-01-15T19:25:41.000Z</time></trkpt>
        <trkpt lat="28.913473" lon="104.1580304"><ele>489.55</ele><time>2026-01-15T19:25:53.000Z</time></trkpt>
        <trkpt lat="28.9134178" lon="104.1579653"><ele>487.78</ele><time>2026-01-15T19:26:03.000Z</time></trkpt>
        <trkpt lat="28.9133774" lon="104.1578626"><ele>487.62</ele><time>2026-01-15T19:26:47.000Z</time></trkpt>
        <trkpt lat="28.9133676" lon="104.1577477"><ele>488.41</ele><time>2026-01-15T19:26:59.000Z</time></trkpt>
        <trkpt lat="28.9133125" lon="104.1576652"><ele>488.34</ele><time>2026-01-15T19:27:15.000Z</time></trkpt>
        <trkpt lat="28.9132413" lon="104.1575888"><ele>488.28</ele><time>2026-01-15T19:27:31.000Z</time></trkpt>
        <trkpt lat="28.9131511" lon="104.1575693"><ele>490.44</ele><time>2026-01-15T19:27:45.000Z</time></trkpt>
        <trkpt lat="28.9130546" lon="104.1575814"><ele>494.3</ele><time>2026-01-15T19:27:57.000Z</time></trkpt>
        <trkpt lat="28.9129701" lon="104.157544"><ele>495.37</ele><time>2026-01-15T19:28:07.000Z</time></trkpt>
        <trkpt lat="28.9128985" lon="104.1574764"><ele>494.65</ele><time>2026-01-15T19:28:19.000Z</time></trkpt>
        <trkpt lat="28.9128312" lon="104.1574028"><ele>495.51</ele><time>2026-01-15T19:28:37.000Z</time></trkpt>
        <trkpt lat="28.9127527" lon="104.1573505"><ele>495.91</ele><time>2026-01-15T19:28:51.000Z</time></trkpt>
        <trkpt lat="28.9126885" lon="104.1572713"><ele>497.91</ele><time>2026-01-15T19:29:09.000Z</time></trkpt>
        <trkpt lat="28.9126063" lon="104.1572385"><ele>499.89</ele><time>2026-01-15T19:29:35.000Z</time></trkpt>
        <trkpt lat="28.912508" lon="104.1572083"><ele>501.49</ele><time>2026-01-15T19:30:13.000Z</time></trkpt>
        <trkpt lat="28.9125056" lon="104.1571282"><ele>504.14</ele><time>2026-01-15T19:30:19.000Z</time></trkpt>
        <trkpt lat="28.9124872" lon="104.1570888"><ele>505.64</ele><time>2026-01-15T19:30:29.000Z</time></trkpt>
        <trkpt lat="28.9124336" lon="104.1570265"><ele>503.37</ele><time>2026-01-15T19:31:05.000Z</time></trkpt>
        <trkpt lat="28.9123541" lon="104.156976"><ele>503.1</ele><time>2026-01-15T19:31:25.000Z</time></trkpt>
        <trkpt lat="28.9123039" lon="104.1569513"><ele>504.85</ele><time>2026-01-15T19:31:37.000Z</time></trkpt>
        <trkpt lat="28.912231" lon="104.1569053"><ele>507.13</ele><time>2026-01-15T19:31:59.000Z</time></trkpt>
        <trkpt lat="28.9121926" lon="104.1568127"><ele>507.3</ele><time>2026-01-15T19:32:15.000Z</time></trkpt>
        <trkpt lat="28.9121266" lon="104.156737"><ele>504.5</ele><time>2026-01-15T19:32:25.000Z</time></trkpt>
        <trkpt lat="28.9120529" lon="104.1566628"><ele>504.04</ele><time>2026-01-15T19:32:39.000Z</time></trkpt>
        <trkpt lat="28.9119848" lon="104.156573"><ele>503.06</ele><time>2026-01-15T19:32:51.000Z</time></trkpt>
        <trkpt lat="28.911931" lon="104.1564815"><ele>504.34</ele><time>2026-01-15T19:33:03.000Z</time></trkpt>
        <trkpt lat="28.9119356" lon="104.1563651"><ele>504.71</ele><time>2026-01-15T19:34:05.000Z</time></trkpt>
        <trkpt lat="28.9119338" lon="104.1562461"><ele>506.62</ele><time>2026-01-15T19:34:17.000Z</time></trkpt>
        <trkpt lat="28.9119066" lon="104.1561373"><ele>506.84</ele><time>2026-01-15T19:34:29.000Z</time></trkpt>
        <trkpt lat="28.911863" lon="104.1560454"><ele>508.24</ele><time>2026-01-15T19:34:43.000Z</time></trkpt>
        <trkpt lat="28.9118493" lon="104.1559374"><ele>509.9</ele><time>2026-01-15T19:35:59.000Z</time></trkpt>
        <trkpt lat="28.9118592" lon="104.1559509"><ele>511.83</ele><time>2026-01-15T19:36:05.000Z</time></trkpt>
        <trkpt lat="28.9118477" lon="104.1558539"><ele>513.96</ele><time>2026-01-15T19:36:21.000Z</time></trkpt>
        <trkpt lat="28.9118116" lon="104.1557493"><ele>514.46</ele><time>2026-01-15T19:36:31.000Z</time></trkpt>
        <trkpt lat="28.9117199" lon="104.1557097"><ele>513.94</ele><time>2026-01-15T19:36:41.000Z</time></trkpt>
        <trkpt lat="28.9116566" lon="104.1556336"><ele>511.86</ele><time>2026-01-15T19:36:59.000Z</time></trkpt>
        <trkpt lat="28.9115852" lon="104.1555569"><ele>511.35</ele><time>2026-01-15T19:37:17.000Z</time></trkpt>
        <trkpt lat="28.911512" lon="104.155487"><ele>509.55</ele><time>2026-01-15T19:37:27.000Z</time></trkpt>
        <trkpt lat="28.9114764" lon="104.1553862"><ele>508.81</ele><time>2026-01-15T19:37:43.000Z</time></trkpt>
        <trkpt lat="28.9114097" lon="104.1553258"><ele>509.24</ele><time>2026-01-15T19:38:05.000Z</time></trkpt>
        <trkpt lat="28.9113344" lon="104.1552587"><ele>509.81</ele><time>2026-01-15T19:38:21.000Z</time></trkpt>
        <trkpt lat="28.9112986" lon="104.1551865"><ele>512.33</ele><time>2026-01-15T19:38:33.000Z</time></trkpt>
        <trkpt lat="28.9113108" lon="104.1550869"><ele>514.33</ele><time>2026-01-15T19:38:55.000Z</time></trkpt>
        <trkpt lat="28.9112599" lon="104.1550152"><ele>516.88</ele><time>2026-01-15T19:39:11.000Z</time></trkpt>
        <trkpt lat="28.9112172" lon="104.1549187"><ele>517.11</ele><time>2026-01-15T19:39:29.000Z</time></trkpt>
        <trkpt lat="28.911166" lon="104.1548243"><ele>515.75</ele><time>2026-01-15T19:39:45.000Z</time></trkpt>
        <trkpt lat="28.9111827" lon="104.1547156"><ele>515.29</ele><time>2026-01-15T19:39:57.000Z</time></trkpt>
        <trkpt lat="28.9111884" lon="104.1547045"><ele>514.19</ele><time>2026-01-15T19:40:01.000Z</time></trkpt>
        <trkpt lat="28.9112452" lon="104.1546299"><ele>512.32</ele><time>2026-01-15T19:40:09.000Z</time></trkpt>
        <trkpt lat="28.9111979" lon="104.1546335"><ele>511</ele><time>2026-01-15T19:40:15.000Z</time></trkpt>
        <trkpt lat="28.9111033" lon="104.1546639"><ele>511.23</ele><time>2026-01-15T19:40:29.000Z</time></trkpt>
        <trkpt lat="28.9110257" lon="104.1546164"><ele>510.9</ele><time>2026-01-15T19:40:43.000Z</time></trkpt>
        <trkpt lat="28.9109613" lon="104.1545318"><ele>512.19</ele><time>2026-01-15T19:40:57.000Z</time></trkpt>
        <trkpt lat="28.9108974" lon="104.1544392"><ele>513.23</ele><time>2026-01-15T19:41:15.000Z</time></trkpt>
        <trkpt lat="28.9108091" lon="104.1544058"><ele>515.31</ele><time>2026-01-15T19:41:33.000Z</time></trkpt>
        <trkpt lat="28.9107237" lon="104.154365"><ele>517.19</ele><time>2026-01-15T19:41:49.000Z</time></trkpt>
        <trkpt lat="28.9106401" lon="104.1543195"><ele>518.19</ele><time>2026-01-15T19:42:01.000Z</time></trkpt>
        <trkpt lat="28.9105466" lon="104.1543177"><ele>519.56</ele><time>2026-01-15T19:42:23.000Z</time></trkpt>
        <trkpt lat="28.9105025" lon="104.1542346"><ele>521.81</ele><time>2026-01-15T19:42:41.000Z</time></trkpt>
        <trkpt lat="28.9104887" lon="104.1542159"><ele>523.97</ele><time>2026-01-15T19:42:43.000Z</time></trkpt>
        <trkpt lat="28.9104235" lon="104.1542298"><ele>524.31</ele><time>2026-01-15T19:43:09.000Z</time></trkpt>
        <trkpt lat="28.9103699" lon="104.1541714"><ele>525.34</ele><time>2026-01-15T19:43:57.000Z</time></trkpt>
        <trkpt lat="28.9104086" lon="104.1540831"><ele>524.55</ele><time>2026-01-15T19:44:13.000Z</time></trkpt>
        <trkpt lat="28.9104917" lon="104.1539866"><ele>523.71</ele><time>2026-01-15T19:44:17.000Z</time></trkpt>
        <trkpt lat="28.9104549" lon="104.1539356"><ele>523.42</ele><time>2026-01-15T19:44:39.000Z</time></trkpt>
        <trkpt lat="28.9103873" lon="104.153982"><ele>526.41</ele><time>2026-01-15T19:44:57.000Z</time></trkpt>
        <trkpt lat="28.9103815" lon="104.1539292"><ele>528.85</ele><time>2026-01-15T19:45:21.000Z</time></trkpt>
        <trkpt lat="28.9103369" lon="104.1538378"><ele>535.67</ele><time>2026-01-15T19:45:41.000Z</time></trkpt>
        <trkpt lat="28.910285" lon="104.153735"><ele>537.96</ele><time>2026-01-15T19:45:57.000Z</time></trkpt>
        <trkpt lat="28.9102567" lon="104.1536263"><ele>537.8</ele><time>2026-01-15T19:46:13.000Z</time></trkpt>
        <trkpt lat="28.9102226" lon="104.1535566"><ele>537.2</ele><time>2026-01-15T19:46:23.000Z</time></trkpt>
        <trkpt lat="28.9102214" lon="104.1534564"><ele>537.29</ele><time>2026-01-15T19:48:03.000Z</time></trkpt>
        <trkpt lat="28.9102089" lon="104.1533532"><ele>536.67</ele><time>2026-01-15T19:51:39.000Z</time></trkpt>
        <trkpt lat="28.9102754" lon="104.1534276"><ele>539.54</ele><time>2026-01-15T19:53:57.000Z</time></trkpt>
        <trkpt lat="28.9102762" lon="104.1535342"><ele>542.1</ele><time>2026-01-15T19:54:17.000Z</time></trkpt>
        <trkpt lat="28.9102914" lon="104.1536358"><ele>541.92</ele><time>2026-01-15T19:58:32.000Z</time></trkpt>
        <trkpt lat="28.9103006" lon="104.1537464"><ele>541.17</ele><time>2026-01-15T19:58:48.000Z</time></trkpt>
        <trkpt lat="28.9103036" lon="104.1538518"><ele>539.95</ele><time>2026-01-15T19:58:56.000Z</time></trkpt>
        <trkpt lat="28.9103547" lon="104.153938"><ele>540.18</ele><time>2026-01-15T19:59:08.000Z</time></trkpt>
        <trkpt lat="28.9103411" lon="104.1540266"><ele>541.17</ele><time>2026-01-15T19:59:32.000Z</time></trkpt>
        <trkpt lat="28.9103365" lon="104.154039"><ele>539.58</ele><time>2026-01-15T19:59:34.000Z</time></trkpt>
        <trkpt lat="28.9103272" lon="104.1541157"><ele>539.17</ele><time>2026-01-15T20:00:10.000Z</time></trkpt>
        <trkpt lat="28.9102609" lon="104.1539873"><ele>539.57</ele><time>2026-01-15T20:00:20.000Z</time></trkpt>
        <trkpt lat="28.9102338" lon="104.1539265"><ele>534.66</ele><time>2026-01-15T20:00:22.000Z</time></trkpt>
        <trkpt lat="28.9101956" lon="104.1538371"><ele>531.92</ele><time>2026-01-15T20:00:48.000Z</time></trkpt>
        <trkpt lat="28.9101414" lon="104.1537345"><ele>531.36</ele><time>2026-01-15T20:01:56.000Z</time></trkpt>
        <trkpt lat="28.9100768" lon="104.1536418"><ele>531.09</ele><time>2026-01-15T20:03:26.000Z</time></trkpt>
        <trkpt lat="28.9099835" lon="104.1536935"><ele>522.02</ele><time>2026-01-15T20:03:48.000Z</time></trkpt>
        <trkpt lat="28.9098959" lon="104.1536674"><ele>509.87</ele><time>2026-01-15T20:03:58.000Z</time></trkpt>
        <trkpt lat="28.9098073" lon="104.1536828"><ele>502.36</ele><time>2026-01-15T20:04:20.000Z</time></trkpt>
        <trkpt lat="28.9097175" lon="104.1536828"><ele>504.67</ele><time>2026-01-15T20:04:52.000Z</time></trkpt>
        <trkpt lat="28.9096618" lon="104.1537491"><ele>510.68</ele><time>2026-01-15T20:05:06.000Z</time></trkpt>
        <trkpt lat="28.9095771" lon="104.1537488"><ele>515.9</ele><time>2026-01-15T20:07:20.000Z</time></trkpt>
        <trkpt lat="28.9094805" lon="104.153733"><ele>526.57</ele><time>2026-01-15T20:07:36.000Z</time></trkpt>
        <trkpt lat="28.9093878" lon="104.1537098"><ele>535.02</ele><time>2026-01-15T20:07:58.000Z</time></trkpt>
        <trkpt lat="28.9093266" lon="104.1537741"><ele>542.57</ele><time>2026-01-15T20:08:14.000Z</time></trkpt>
        <trkpt lat="28.9092854" lon="104.1538938"><ele>540.53</ele><time>2026-01-15T20:09:18.000Z</time></trkpt>
        <trkpt lat="28.9091899" lon="104.1539491"><ele>523.41</ele><time>2026-01-15T20:10:24.000Z</time></trkpt>
        <trkpt lat="28.9091719" lon="104.1539546"><ele>499.83</ele><time>2026-01-15T20:10:30.000Z</time></trkpt>
        <trkpt lat="28.9090928" lon="104.153969"><ele>486.3</ele><time>2026-01-15T20:10:50.000Z</time></trkpt>
        <trkpt lat="28.909006" lon="104.1539971"><ele>477.89</ele><time>2026-01-15T20:11:20.000Z</time></trkpt>
        <trkpt lat="28.9089133" lon="104.1539909"><ele>474.19</ele><time>2026-01-15T20:11:40.000Z</time></trkpt>
        <trkpt lat="28.9088258" lon="104.1539529"><ele>474.28</ele><time>2026-01-15T20:12:02.000Z</time></trkpt>
        <trkpt lat="28.9087443" lon="104.1538866"><ele>473.09</ele><time>2026-01-15T20:12:24.000Z</time></trkpt>
        <trkpt lat="28.9086591" lon="104.1539044"><ele>472.19</ele><time>2026-01-15T20:13:04.000Z</time></trkpt>
        <trkpt lat="28.9085751" lon="104.1539538"><ele>471.91</ele><time>2026-01-15T20:13:24.000Z</time></trkpt>
        <trkpt lat="28.9084854" lon="104.1539469"><ele>472.61</ele><time>2026-01-15T20:13:52.000Z</time></trkpt>
        <trkpt lat="28.908396" lon="104.15392"><ele>470.82</ele><time>2026-01-15T20:14:18.000Z</time></trkpt>
        <trkpt lat="28.9083044" lon="104.1539197"><ele>469.83</ele><time>2026-01-15T20:14:42.000Z</time></trkpt>
        <trkpt lat="28.9082071" lon="104.1539057"><ele>464.69</ele><time>2026-01-15T20:15:06.000Z</time></trkpt>
        <trkpt lat="28.9081167" lon="104.153857"><ele>458.85</ele><time>2026-01-15T20:15:26.000Z</time></trkpt>
        <trkpt lat="28.9080266" lon="104.1538272"><ele>458.48</ele><time>2026-01-15T20:15:44.000Z</time></trkpt>
        <trkpt lat="28.9079351" lon="104.1538353"><ele>461.85</ele><time>2026-01-15T20:15:54.000Z</time></trkpt>
        <trkpt lat="28.9078472" lon="104.1538938"><ele>464.82</ele><time>2026-01-15T20:16:06.000Z</time></trkpt>
        <trkpt lat="28.9077535" lon="104.153898"><ele>468.68</ele><time>2026-01-15T20:16:18.000Z</time></trkpt>
        <trkpt lat="28.907693" lon="104.1538579"><ele>471.58</ele><time>2026-01-15T20:16:30.000Z</time></trkpt>
        <trkpt lat="28.9076167" lon="104.1538062"><ele>474.75</ele><time>2026-01-15T20:17:08.000Z</time></trkpt>
        <trkpt lat="28.9075965" lon="104.1538113"><ele>480.91</ele><time>2026-01-15T20:17:10.000Z</time></trkpt>
        <trkpt lat="28.9075362" lon="104.1537747"><ele>484.02</ele><time>2026-01-15T20:18:00.000Z</time></trkpt>
        <trkpt lat="28.9074868" lon="104.1537541"><ele>495.13</ele><time>2026-01-15T20:18:08.000Z</time></trkpt>
        <trkpt lat="28.9074069" lon="104.153743"><ele>502.43</ele><time>2026-01-15T20:18:52.000Z</time></trkpt>
        <trkpt lat="28.9073805" lon="104.1536426"><ele>516.76</ele><time>2026-01-15T20:20:13.000Z</time></trkpt>
        <trkpt lat="28.9072918" lon="104.1535838"><ele>535.48</ele><time>2026-01-15T20:20:29.000Z</time></trkpt>
        <trkpt lat="28.9071926" lon="104.1535811"><ele>547.11</ele><time>2026-01-15T20:20:43.000Z</time></trkpt>
        <trkpt lat="28.9071224" lon="104.1535109"><ele>554.82</ele><time>2026-01-15T20:21:05.000Z</time></trkpt>
        <trkpt lat="28.9070384" lon="104.1534821"><ele>559.12</ele><time>2026-01-15T20:21:31.000Z</time></trkpt>
        <trkpt lat="28.9070094" lon="104.1533999"><ele>561.15</ele><time>2026-01-15T20:21:57.000Z</time></trkpt>
        <trkpt lat="28.9069311" lon="104.1533775"><ele>564.14</ele><time>2026-01-15T20:22:17.000Z</time></trkpt>
        <trkpt lat="28.9068345" lon="104.1533719"><ele>570.99</ele><time>2026-01-15T20:22:29.000Z</time></trkpt>
        <trkpt lat="28.9067326" lon="104.1533614"><ele>575.83</ele><time>2026-01-15T20:22:51.000Z</time></trkpt>
        <trkpt lat="28.9066317" lon="104.1533938"><ele>574.75</ele><time>2026-01-15T20:23:11.000Z</time></trkpt>
        <trkpt lat="28.9065734" lon="104.1534009"><ele>571.68</ele><time>2026-01-15T20:23:19.000Z</time></trkpt>
        <trkpt lat="28.9065326" lon="104.1533265"><ele>569.87</ele><time>2026-01-15T20:23:43.000Z</time></trkpt>
        <trkpt lat="28.9065024" lon="104.1532253"><ele>568.33</ele><time>2026-01-15T20:24:05.000Z</time></trkpt>
        <trkpt lat="28.9064509" lon="104.1531366"><ele>566.38</ele><time>2026-01-15T20:24:19.000Z</time></trkpt>
        <trkpt lat="28.9064017" lon="104.1530455"><ele>564.31</ele><time>2026-01-15T20:24:47.000Z</time></trkpt>
        <trkpt lat="28.9063856" lon="104.1530099"><ele>561.75</ele><time>2026-01-15T20:24:51.000Z</time></trkpt>
        <trkpt lat="28.9063667" lon="104.1529294"><ele>560.78</ele><time>2026-01-15T20:25:05.000Z</time></trkpt>
        <trkpt lat="28.9063096" lon="104.1528513"><ele>559.2</ele><time>2026-01-15T20:25:17.000Z</time></trkpt>
        <trkpt lat="28.9062365" lon="104.1527652"><ele>560.04</ele><time>2026-01-15T20:25:39.000Z</time></trkpt>
        <trkpt lat="28.9062415" lon="104.1526667"><ele>563.49</ele><time>2026-01-15T20:25:57.000Z</time></trkpt>
        <trkpt lat="28.9062051" lon="104.1525786"><ele>568.29</ele><time>2026-01-15T20:26:13.000Z</time></trkpt>
        <trkpt lat="28.9061246" lon="104.1526366"><ele>575.18</ele><time>2026-01-15T20:27:23.000Z</time></trkpt>
        <trkpt lat="28.9060342" lon="104.1526141"><ele>579.92</ele><time>2026-01-15T20:27:39.000Z</time></trkpt>
        <trkpt lat="28.9060056" lon="104.1526277"><ele>582.54</ele><time>2026-01-15T20:27:45.000Z</time></trkpt>
        <trkpt lat="28.905937" lon="104.1526704"><ele>583.8</ele><time>2026-01-15T20:28:21.000Z</time></trkpt>
        <trkpt lat="28.9059094" lon="104.1527038"><ele>584.31</ele><time>2026-01-15T20:28:27.000Z</time></trkpt>
        <trkpt lat="28.9058886" lon="104.1527968"><ele>583.13</ele><time>2026-01-15T20:28:51.000Z</time></trkpt>
        <trkpt lat="28.905838" lon="104.1527691"><ele>581.62</ele><time>2026-01-15T20:29:11.000Z</time></trkpt>
        <trkpt lat="28.9058353" lon="104.1526713"><ele>583.13</ele><time>2026-01-15T20:29:29.000Z</time></trkpt>
        <trkpt lat="28.9058221" lon="104.1525547"><ele>586.81</ele><time>2026-01-15T20:29:55.000Z</time></trkpt>
        <trkpt lat="28.9058085" lon="104.1524386"><ele>587.34</ele><time>2026-01-15T20:30:15.000Z</time></trkpt>
        <trkpt lat="28.9057112" lon="104.1524481"><ele>587.29</ele><time>2026-01-15T20:31:28.000Z</time></trkpt>
        <trkpt lat="28.9056218" lon="104.1525144"><ele>587.96</ele><time>2026-01-15T20:31:46.000Z</time></trkpt>
        <trkpt lat="28.9055217" lon="104.1525447"><ele>589.15</ele><time>2026-01-15T20:32:00.000Z</time></trkpt>
        <trkpt lat="28.905478" lon="104.1524698"><ele>586.2</ele><time>2026-01-15T20:32:12.000Z</time></trkpt>
        <trkpt lat="28.9054042" lon="104.15244"><ele>586.67</ele><time>2026-01-15T20:32:54.000Z</time></trkpt>
        <trkpt lat="28.9054355" lon="104.1523024"><ele>590.22</ele><time>2026-01-15T20:53:18.000Z</time></trkpt>
        <trkpt lat="28.9054162" lon="104.1522981"><ele>595.44</ele><time>2026-01-15T20:53:20.000Z</time></trkpt>
        <trkpt lat="28.9053518" lon="104.152352"><ele>598.93</ele><time>2026-01-15T20:53:46.000Z</time></trkpt>
        <trkpt lat="28.9053145" lon="104.1524031"><ele>598.55</ele><time>2026-01-15T20:54:02.000Z</time></trkpt>
        <trkpt lat="28.9052453" lon="104.1524542"><ele>598.77</ele><time>2026-01-15T20:54:50.000Z</time></trkpt>
        <trkpt lat="28.9052559" lon="104.1523523"><ele>596.1</ele><time>2026-01-15T20:55:56.000Z</time></trkpt>
        <trkpt lat="28.9052795" lon="104.1522456"><ele>586.6</ele><time>2026-01-15T20:56:28.000Z</time></trkpt>
        <trkpt lat="28.9052013" lon="104.1523022"><ele>583.63</ele><time>2026-01-15T20:57:38.000Z</time></trkpt>
        <trkpt lat="28.9051027" lon="104.1522768"><ele>588.3</ele><time>2026-01-15T20:58:22.000Z</time></trkpt>
        <trkpt lat="28.9050533" lon="104.1521788"><ele>587.74</ele><time>2026-01-15T20:58:36.000Z</time></trkpt>
        <trkpt lat="28.9049787" lon="104.1521199"><ele>587.94</ele><time>2026-01-15T20:58:50.000Z</time></trkpt>
        <trkpt lat="28.9049831" lon="104.1520323"><ele>587.83</ele><time>2026-01-15T20:59:08.000Z</time></trkpt>
        <trkpt lat="28.9049678" lon="104.1520001"><ele>590.29</ele><time>2026-01-15T20:59:14.000Z</time></trkpt>
        <trkpt lat="28.9049031" lon="104.1519493"><ele>591.57</ele><time>2026-01-15T20:59:28.000Z</time></trkpt>
        <trkpt lat="28.9048552" lon="104.1519092"><ele>596.18</ele><time>2026-01-15T20:59:46.000Z</time></trkpt>
        <trkpt lat="28.9047749" lon="104.151854"><ele>600.42</ele><time>2026-01-15T21:00:52.000Z</time></trkpt>
        <trkpt lat="28.9046821" lon="104.1518191"><ele>606.24</ele><time>2026-01-15T21:01:26.000Z</time></trkpt>
        <trkpt lat="28.9046237" lon="104.1518897"><ele>609.94</ele><time>2026-01-15T21:02:16.000Z</time></trkpt>
        <trkpt lat="28.9045906" lon="104.151912"><ele>614.54</ele><time>2026-01-15T21:02:26.000Z</time></trkpt>
        <trkpt lat="28.904527" lon="104.1518387"><ele>618.55</ele><time>2026-01-15T21:03:34.000Z</time></trkpt>
        <trkpt lat="28.9045194" lon="104.1517313"><ele>622.81</ele><time>2026-01-15T21:06:04.000Z</time></trkpt>
        <trkpt lat="28.9044754" lon="104.1516266"><ele>625.97</ele><time>2026-01-15T21:06:24.000Z</time></trkpt>
        <trkpt lat="28.9044869" lon="104.1515353"><ele>626.46</ele><time>2026-01-15T21:06:30.000Z</time></trkpt>
        <trkpt lat="28.904413" lon="104.1515512"><ele>627.03</ele><time>2026-01-15T21:07:02.000Z</time></trkpt>
        <trkpt lat="28.9043154" lon="104.1515255"><ele>627.1</ele><time>2026-01-15T21:08:20.000Z</time></trkpt>
        <trkpt lat="28.9042818" lon="104.1514248"><ele>629.96</ele><time>2026-01-15T21:09:14.000Z</time></trkpt>
        <trkpt lat="28.9042762" lon="104.1513089"><ele>634.43</ele><time>2026-01-15T21:10:30.000Z</time></trkpt>
        <trkpt lat="28.9042243" lon="104.1513951"><ele>636.41</ele><time>2026-01-15T21:12:08.000Z</time></trkpt>
        <trkpt lat="28.9041255" lon="104.1513862"><ele>632.75</ele><time>2026-01-15T21:13:27.000Z</time></trkpt>
        <trkpt lat="28.9040985" lon="104.1512715"><ele>637.04</ele><time>2026-01-15T21:13:55.000Z</time></trkpt>
        <trkpt lat="28.9041045" lon="104.1511679"><ele>640.26</ele><time>2026-01-15T21:16:09.000Z</time></trkpt>
        <trkpt lat="28.9041448" lon="104.1510659"><ele>642.64</ele><time>2026-01-15T21:16:25.000Z</time></trkpt>
        <trkpt lat="28.9040899" lon="104.1509935"><ele>644.12</ele><time>2026-01-15T21:16:43.000Z</time></trkpt>
        <trkpt lat="28.9040327" lon="104.1509131"><ele>647.53</ele><time>2026-01-15T21:16:53.000Z</time></trkpt>
        <trkpt lat="28.9039662" lon="104.1508758"><ele>649.67</ele><time>2026-01-15T21:17:05.000Z</time></trkpt>
        <trkpt lat="28.9038815" lon="104.150821"><ele>650.25</ele><time>2026-01-15T21:17:25.000Z</time></trkpt>
        <trkpt lat="28.9038242" lon="104.1507617"><ele>650.17</ele><time>2026-01-15T21:17:35.000Z</time></trkpt>
        <trkpt lat="28.903813" lon="104.1508292"><ele>650.7</ele><time>2026-01-15T21:18:03.000Z</time></trkpt>
        <trkpt lat="28.9037437" lon="104.150846"><ele>649.44</ele><time>2026-01-15T21:18:27.000Z</time></trkpt>
        <trkpt lat="28.9037247" lon="104.1507631"><ele>648.83</ele><time>2026-01-15T21:19:05.000Z</time></trkpt>
        <trkpt lat="28.9036935" lon="104.1506521"><ele>648.32</ele><time>2026-01-15T21:19:19.000Z</time></trkpt>
        <trkpt lat="28.9036598" lon="104.1505318"><ele>647.37</ele><time>2026-01-15T21:19:31.000Z</time></trkpt>
        <trkpt lat="28.9036359" lon="104.1504138"><ele>647.42</ele><time>2026-01-15T21:19:45.000Z</time></trkpt>
        <trkpt lat="28.9036119" lon="104.1503006"><ele>647.57</ele><time>2026-01-15T21:20:03.000Z</time></trkpt>
        <trkpt lat="28.9035742" lon="104.1501996"><ele>646.43</ele><time>2026-01-15T21:20:37.000Z</time></trkpt>
        <trkpt lat="28.9035393" lon="104.1500912"><ele>646.11</ele><time>2026-01-15T21:20:55.000Z</time></trkpt>
        <trkpt lat="28.9034991" lon="104.1499947"><ele>646.45</ele><time>2026-01-15T21:21:17.000Z</time></trkpt>
        <trkpt lat="28.9034272" lon="104.1499332"><ele>646.4</ele><time>2026-01-15T21:21:31.000Z</time></trkpt>
        <trkpt lat="28.9034019" lon="104.150016"><ele>648.61</ele><time>2026-01-15T21:21:43.000Z</time></trkpt>
        <trkpt lat="28.9033306" lon="104.1500735"><ele>653.42</ele><time>2026-01-15T21:22:05.000Z</time></trkpt>
        <trkpt lat="28.9032354" lon="104.1500987"><ele>655.95</ele><time>2026-01-15T21:22:33.000Z</time></trkpt>
        <trkpt lat="28.9031806" lon="104.1501766"><ele>660.16</ele><time>2026-01-15T21:23:07.000Z</time></trkpt>
        <trkpt lat="28.9031781" lon="104.1502849"><ele>665.01</ele><time>2026-01-15T21:23:41.000Z</time></trkpt>
        <trkpt lat="28.9031201" lon="104.1503488"><ele>670.88</ele><time>2026-01-15T21:24:07.000Z</time></trkpt>
        <trkpt lat="28.9030358" lon="104.1503336"><ele>674.22</ele><time>2026-01-15T21:24:27.000Z</time></trkpt>
        <trkpt lat="28.9029819" lon="104.1503903"><ele>678.97</ele><time>2026-01-15T21:24:49.000Z</time></trkpt>
        <trkpt lat="28.9029599" lon="104.1504848"><ele>681.27</ele><time>2026-01-15T21:25:10.000Z</time></trkpt>
        <trkpt lat="28.9029821" lon="104.150619"><ele>685.29</ele><time>2026-01-15T21:26:40.000Z</time></trkpt>
        <trkpt lat="28.9030468" lon="104.1506985"><ele>687.39</ele><time>2026-01-15T21:26:52.000Z</time></trkpt>
        <trkpt lat="28.9030647" lon="104.1508107"><ele>688.79</ele><time>2026-01-15T21:27:08.000Z</time></trkpt>
        <trkpt lat="28.9030448" lon="104.1509148"><ele>690.14</ele><time>2026-01-15T21:27:28.000Z</time></trkpt>
        <trkpt lat="28.9029856" lon="104.1510024"><ele>692.13</ele><time>2026-01-15T21:27:58.000Z</time></trkpt>
        <trkpt lat="28.9029046" lon="104.1510755"><ele>695.81</ele><time>2026-01-15T21:28:20.000Z</time></trkpt>
        <trkpt lat="28.9029308" lon="104.1511445"><ele>698.45</ele><time>2026-01-15T21:28:34.000Z</time></trkpt>
        <trkpt lat="28.9029222" lon="104.1512405"><ele>700.18</ele><time>2026-01-15T21:28:48.000Z</time></trkpt>
        <trkpt lat="28.9029745" lon="104.1513171"><ele>703.02</ele><time>2026-01-15T21:29:04.000Z</time></trkpt>
        <trkpt lat="28.9030462" lon="104.1513895"><ele>705.04</ele><time>2026-01-15T21:29:20.000Z</time></trkpt>
        <trkpt lat="28.9030373" lon="104.1514767"><ele>707.43</ele><time>2026-01-15T21:29:40.000Z</time></trkpt>
        <trkpt lat="28.9030322" lon="104.151582"><ele>710.33</ele><time>2026-01-15T21:30:24.000Z</time></trkpt>
        <trkpt lat="28.9030321" lon="104.151696"><ele>712.88</ele><time>2026-01-15T21:30:38.000Z</time></trkpt>
        <trkpt lat="28.9029877" lon="104.1517924"><ele>716.81</ele><time>2026-01-15T21:31:24.000Z</time></trkpt>
        <trkpt lat="28.9030141" lon="104.151891"><ele>719.69</ele><time>2026-01-15T21:31:42.000Z</time></trkpt>
        <trkpt lat="28.9030125" lon="104.1519967"><ele>722.51</ele><time>2026-01-15T21:31:58.000Z</time></trkpt>
        <trkpt lat="28.9029682" lon="104.152084"><ele>724.32</ele><time>2026-01-15T21:32:12.000Z</time></trkpt>
        <trkpt lat="28.9029238" lon="104.1521822"><ele>725.63</ele><time>2026-01-15T21:32:26.000Z</time></trkpt>
        <trkpt lat="28.9028827" lon="104.1522821"><ele>728.26</ele><time>2026-01-15T21:32:44.000Z</time></trkpt>
        <trkpt lat="28.9028239" lon="104.1523728"><ele>731.07</ele><time>2026-01-15T21:33:00.000Z</time></trkpt>
        <trkpt lat="28.9027544" lon="104.1524494"><ele>732.78</ele><time>2026-01-15T21:33:14.000Z</time></trkpt>
        <trkpt lat="28.9027721" lon="104.152537"><ele>735.78</ele><time>2026-01-15T21:33:30.000Z</time></trkpt>
        <trkpt lat="28.9028222" lon="104.1526291"><ele>738.69</ele><time>2026-01-15T21:33:56.000Z</time></trkpt>
        <trkpt lat="28.9028023" lon="104.1527175"><ele>742.19</ele><time>2026-01-15T21:34:18.000Z</time></trkpt>
        <trkpt lat="28.9028154" lon="104.1528129"><ele>745.14</ele><time>2026-01-15T21:34:48.000Z</time></trkpt>
        <trkpt lat="28.9028197" lon="104.1528936"><ele>746.18</ele><time>2026-01-15T21:35:02.000Z</time></trkpt>
        <trkpt lat="28.9028056" lon="104.1529879"><ele>748.18</ele><time>2026-01-15T21:35:22.000Z</time></trkpt>
        <trkpt lat="28.9028126" lon="104.1530944"><ele>750.74</ele><time>2026-01-15T21:35:40.000Z</time></trkpt>
        <trkpt lat="28.9028341" lon="104.1532012"><ele>754.67</ele><time>2026-01-15T21:36:08.000Z</time></trkpt>
        <trkpt lat="28.9028748" lon="104.1533112"><ele>756.02</ele><time>2026-01-15T21:36:18.000Z</time></trkpt>
        <trkpt lat="28.9029118" lon="104.1534221"><ele>757.59</ele><time>2026-01-15T21:36:34.000Z</time></trkpt>
        <trkpt lat="28.9029933" lon="104.1534626"><ele>759.2</ele><time>2026-01-15T21:36:52.000Z</time></trkpt>
        <trkpt lat="28.9030801" lon="104.1535036"><ele>759.22</ele><time>2026-01-15T21:37:08.000Z</time></trkpt>
        <trkpt lat="28.9031151" lon="104.1535297"><ele>760.02</ele><time>2026-01-15T21:37:16.000Z</time></trkpt>
        <trkpt lat="28.9031688" lon="104.1536"><ele>760.81</ele><time>2026-01-15T21:37:40.000Z</time></trkpt>
        <trkpt lat="28.9032552" lon="104.1536247"><ele>761.73</ele><time>2026-01-15T21:37:54.000Z</time></trkpt>
        <trkpt lat="28.9033444" lon="104.1536669"><ele>762.55</ele><time>2026-01-15T21:38:12.000Z</time></trkpt>
        <trkpt lat="28.9034091" lon="104.1537495"><ele>763.81</ele><time>2026-01-15T21:38:30.000Z</time></trkpt>
        <trkpt lat="28.9034884" lon="104.1538006"><ele>765.28</ele><time>2026-01-15T21:38:50.000Z</time></trkpt>
        <trkpt lat="28.9035681" lon="104.1538587"><ele>765.8</ele><time>2026-01-15T21:39:02.000Z</time></trkpt>
        <trkpt lat="28.9036578" lon="104.1539079"><ele>766.93</ele><time>2026-01-15T21:39:20.000Z</time></trkpt>
        <trkpt lat="28.9037298" lon="104.1539771"><ele>769.17</ele><time>2026-01-15T21:39:34.000Z</time></trkpt>
        <trkpt lat="28.9038049" lon="104.1540373"><ele>771.67</ele><time>2026-01-15T21:39:46.000Z</time></trkpt>
        <trkpt lat="28.9038713" lon="104.1541083"><ele>772.67</ele><time>2026-01-15T21:39:56.000Z</time></trkpt>
        <trkpt lat="28.9039384" lon="104.154194"><ele>773.42</ele><time>2026-01-15T21:40:08.000Z</time></trkpt>
        <trkpt lat="28.9039889" lon="104.1542928"><ele>774.43</ele><time>2026-01-15T21:40:20.000Z</time></trkpt>
        <trkpt lat="28.9040177" lon="104.1544004"><ele>775.82</ele><time>2026-01-15T21:40:36.000Z</time></trkpt>
        <trkpt lat="28.9040595" lon="104.1544958"><ele>776.87</ele><time>2026-01-15T21:40:50.000Z</time></trkpt>
        <trkpt lat="28.9041426" lon="104.1545529"><ele>778.79</ele><time>2026-01-15T21:42:02.000Z</time></trkpt>
        <trkpt lat="28.9042218" lon="104.1546093"><ele>782.63</ele><time>2026-01-15T21:42:18.000Z</time></trkpt>
        <trkpt lat="28.9043067" lon="104.1546554"><ele>786.48</ele><time>2026-01-15T21:42:56.000Z</time></trkpt>
        <trkpt lat="28.9043912" lon="104.1547057"><ele>789.04</ele><time>2026-01-15T21:43:08.000Z</time></trkpt>
        <trkpt lat="28.9044815" lon="104.154748"><ele>789.28</ele><time>2026-01-15T21:43:20.000Z</time></trkpt>
        <trkpt lat="28.9045762" lon="104.1547695"><ele>788.81</ele><time>2026-01-15T21:43:30.000Z</time></trkpt>
        <trkpt lat="28.9046724" lon="104.1547899"><ele>787.62</ele><time>2026-01-15T21:43:40.000Z</time></trkpt>
        <trkpt lat="28.9047622" lon="104.154828"><ele>787.87</ele><time>2026-01-15T21:43:50.000Z</time></trkpt>
        <trkpt lat="28.9048399" lon="104.1548955"><ele>788.32</ele><time>2026-01-15T21:44:02.000Z</time></trkpt>
        <trkpt lat="28.9048999" lon="104.1549814"><ele>789.18</ele><time>2026-01-15T21:44:24.000Z</time></trkpt>
        <trkpt lat="28.9049764" lon="104.1549783"><ele>790.34</ele><time>2026-01-15T21:44:34.000Z</time></trkpt>
        <trkpt lat="28.9050613" lon="104.1549945"><ele>791.69</ele><time>2026-01-15T21:45:00.000Z</time></trkpt>
        <trkpt lat="28.9051311" lon="104.1550572"><ele>793.28</ele><time>2026-01-15T21:45:48.000Z</time></trkpt>
        <trkpt lat="28.9051341" lon="104.1551547"><ele>797.3</ele><time>2026-01-15T21:46:18.000Z</time></trkpt>
        <trkpt lat="28.9051362" lon="104.155264"><ele>802.09</ele><time>2026-01-15T21:46:38.000Z</time></trkpt>
        <trkpt lat="28.9051998" lon="104.1553265"><ele>806.25</ele><time>2026-01-15T21:47:28.000Z</time></trkpt>
        <trkpt lat="28.9052688" lon="104.1552759"><ele>811.35</ele><time>2026-01-15T21:48:24.000Z</time></trkpt>
        <trkpt lat="28.9052884" lon="104.1552484"><ele>817.61</ele><time>2026-01-15T21:48:26.000Z</time></trkpt>
        <trkpt lat="28.9053675" lon="104.1552833"><ele>821.12</ele><time>2026-01-15T21:50:44.000Z</time></trkpt>
        <trkpt lat="28.9054608" lon="104.1552819"><ele>822.17</ele><time>2026-01-15T21:50:56.000Z</time></trkpt>
        <trkpt lat="28.9055597" lon="104.1552836"><ele>822</ele><time>2026-01-15T21:51:20.000Z</time></trkpt>
        <trkpt lat="28.9056597" lon="104.1552938"><ele>820.59</ele><time>2026-01-15T21:51:30.000Z</time></trkpt>
        <trkpt lat="28.9057598" lon="104.1552911"><ele>819.75</ele><time>2026-01-15T21:51:40.000Z</time></trkpt>
        <trkpt lat="28.9058649" lon="104.1552884"><ele>819.07</ele><time>2026-01-15T21:51:50.000Z</time></trkpt>
        <trkpt lat="28.9059646" lon="104.1552868"><ele>818.88</ele><time>2026-01-15T21:51:58.000Z</time></trkpt>
        <trkpt lat="28.9060581" lon="104.1552863"><ele>819.83</ele><time>2026-01-15T21:52:06.000Z</time></trkpt>
        <trkpt lat="28.9061546" lon="104.1552802"><ele>820.03</ele><time>2026-01-15T21:52:14.000Z</time></trkpt>
        <trkpt lat="28.9062547" lon="104.155267"><ele>820.31</ele><time>2026-01-15T21:52:22.000Z</time></trkpt>
        <trkpt lat="28.906357" lon="104.1552519"><ele>820.71</ele><time>2026-01-15T21:52:30.000Z</time></trkpt>
        <trkpt lat="28.906451" lon="104.155239"><ele>820.85</ele><time>2026-01-15T21:52:38.000Z</time></trkpt>
        <trkpt lat="28.906543" lon="104.1552421"><ele>821.42</ele><time>2026-01-15T21:52:46.000Z</time></trkpt>
        <trkpt lat="28.9066427" lon="104.1552495"><ele>822.37</ele><time>2026-01-15T21:52:56.000Z</time></trkpt>
        <trkpt lat="28.9067458" lon="104.1552748"><ele>823.95</ele><time>2026-01-15T21:53:06.000Z</time></trkpt>
        <trkpt lat="28.9068158" lon="104.1552682"><ele>824.7</ele><time>2026-01-15T21:53:14.000Z</time></trkpt>
        <trkpt lat="28.9068636" lon="104.1553341"><ele>825.49</ele><time>2026-01-15T21:53:26.000Z</time></trkpt>
        <trkpt lat="28.9068841" lon="104.1554524"><ele>826.16</ele><time>2026-01-15T21:53:36.000Z</time></trkpt>
        <trkpt lat="28.9068908" lon="104.1555823"><ele>827.13</ele><time>2026-01-15T21:53:44.000Z</time></trkpt>
        <trkpt lat="28.9068962" lon="104.1557036"><ele>828.29</ele><time>2026-01-15T21:53:52.000Z</time></trkpt>
        <trkpt lat="28.9068945" lon="104.1558183"><ele>828.31</ele><time>2026-01-15T21:54:00.000Z</time></trkpt>
        <trkpt lat="28.9068953" lon="104.1559254"><ele>828.45</ele><time>2026-01-15T21:54:08.000Z</time></trkpt>
        <trkpt lat="28.9068959" lon="104.156036"><ele>827.43</ele><time>2026-01-15T21:54:16.000Z</time></trkpt>
        <trkpt lat="28.9068924" lon="104.156141"><ele>827.1</ele><time>2026-01-15T21:54:24.000Z</time></trkpt>
        <trkpt lat="28.9069033" lon="104.1562476"><ele>827.05</ele><time>2026-01-15T21:54:32.000Z</time></trkpt>
        <trkpt lat="28.9069251" lon="104.1563504"><ele>826.83</ele><time>2026-01-15T21:54:40.000Z</time></trkpt>
        <trkpt lat="28.9069622" lon="104.156445"><ele>826.73</ele><time>2026-01-15T21:54:48.000Z</time></trkpt>
        <trkpt lat="28.9070372" lon="104.1565132"><ele>827.06</ele><time>2026-01-15T21:54:58.000Z</time></trkpt>
        <trkpt lat="28.9071459" lon="104.1565148"><ele>827.12</ele><time>2026-01-15T21:55:08.000Z</time></trkpt>
        <trkpt lat="28.9072504" lon="104.1564674"><ele>828.36</ele><time>2026-01-15T21:55:16.000Z</time></trkpt>
        <trkpt lat="28.9073373" lon="104.1564047"><ele>830.47</ele><time>2026-01-15T21:55:24.000Z</time></trkpt>
        <trkpt lat="28.9074151" lon="104.1563247"><ele>832.36</ele><time>2026-01-15T21:55:34.000Z</time></trkpt>
        <trkpt lat="28.9074922" lon="104.1562399"><ele>834.67</ele><time>2026-01-15T21:55:44.000Z</time></trkpt>
        <trkpt lat="28.9075633" lon="104.1561653"><ele>836.84</ele><time>2026-01-15T21:55:54.000Z</time></trkpt>
        <trkpt lat="28.9076343" lon="104.1560998"><ele>839.18</ele><time>2026-01-15T21:56:04.000Z</time></trkpt>
        <trkpt lat="28.9077035" lon="104.1560297"><ele>840.69</ele><time>2026-01-15T21:56:14.000Z</time></trkpt>
        <trkpt lat="28.9077784" lon="104.1559548"><ele>842</ele><time>2026-01-15T21:56:30.000Z</time></trkpt>
        <trkpt lat="28.9078408" lon="104.1558713"><ele>843.17</ele><time>2026-01-15T21:56:42.000Z</time></trkpt>
        <trkpt lat="28.9078839" lon="104.1557735"><ele>845.17</ele><time>2026-01-15T21:56:56.000Z</time></trkpt>
        <trkpt lat="28.9079267" lon="104.1556681"><ele>846.83</ele><time>2026-01-15T21:57:10.000Z</time></trkpt>
        <trkpt lat="28.9079744" lon="104.1556318"><ele>848.9</ele><time>2026-01-15T21:57:18.000Z</time></trkpt>
        <trkpt lat="28.9080568" lon="104.1556084"><ele>849.99</ele><time>2026-01-15T21:57:34.000Z</time></trkpt>
        <trkpt lat="28.9081532" lon="104.1555788"><ele>850.95</ele><time>2026-01-15T21:57:44.000Z</time></trkpt>
        <trkpt lat="28.9082464" lon="104.155539"><ele>852.2</ele><time>2026-01-15T21:57:54.000Z</time></trkpt>
        <trkpt lat="28.908333" lon="104.1554837"><ele>853.07</ele><time>2026-01-15T21:58:04.000Z</time></trkpt>
        <trkpt lat="28.908424" lon="104.1554391"><ele>854.23</ele><time>2026-01-15T21:58:14.000Z</time></trkpt>
        <trkpt lat="28.9085208" lon="104.1554344"><ele>855.3</ele><time>2026-01-15T21:58:24.000Z</time></trkpt>
        <trkpt lat="28.9086261" lon="104.1554348"><ele>855.75</ele><time>2026-01-15T21:58:34.000Z</time></trkpt>
        <trkpt lat="28.9087245" lon="104.1554677"><ele>855.98</ele><time>2026-01-15T21:58:44.000Z</time></trkpt>
        <trkpt lat="28.9087612" lon="104.1554787"><ele>855.37</ele><time>2026-01-15T21:58:50.000Z</time></trkpt>
        <trkpt lat="28.9087525" lon="104.1555689"><ele>854.98</ele><time>2026-01-15T21:59:26.000Z</time></trkpt>
        <trkpt lat="28.9087971" lon="104.1556523"><ele>854.35</ele><time>2026-01-15T22:00:04.000Z</time></trkpt>
        <trkpt lat="28.9088788" lon="104.1556779"><ele>854</ele><time>2026-01-15T22:00:14.000Z</time></trkpt>
        <trkpt lat="28.9089775" lon="104.1556459"><ele>853.01</ele><time>2026-01-15T22:00:26.000Z</time></trkpt>
        <trkpt lat="28.9090746" lon="104.1556104"><ele>852.81</ele><time>2026-01-15T22:00:38.000Z</time></trkpt>
        <trkpt lat="28.9091729" lon="104.1555632"><ele>852.57</ele><time>2026-01-15T22:00:52.000Z</time></trkpt>
        <trkpt lat="28.9092502" lon="104.1556251"><ele>852.35</ele><time>2026-01-15T22:02:40.000Z</time></trkpt>
        <trkpt lat="28.9092755" lon="104.1557263"><ele>854.15</ele><time>2026-01-15T22:02:52.000Z</time></trkpt>
        <trkpt lat="28.9093514" lon="104.1558003"><ele>854.64</ele><time>2026-01-15T22:03:06.000Z</time></trkpt>
        <trkpt lat="28.9093891" lon="104.1558987"><ele>854.01</ele><time>2026-01-15T22:03:16.000Z</time></trkpt>
        <trkpt lat="28.9093917" lon="104.1560127"><ele>853.53</ele><time>2026-01-15T22:03:28.000Z</time></trkpt>
        <trkpt lat="28.9093958" lon="104.156135"><ele>853.63</ele><time>2026-01-15T22:03:38.000Z</time></trkpt>
        <trkpt lat="28.9094248" lon="104.1562457"><ele>852.76</ele><time>2026-01-15T22:03:48.000Z</time></trkpt>
        <trkpt lat="28.9094992" lon="104.1563253"><ele>851.1</ele><time>2026-01-15T22:04:00.000Z</time></trkpt>
        <trkpt lat="28.9095738" lon="104.1563943"><ele>849.27</ele><time>2026-01-15T22:04:10.000Z</time></trkpt>
        <trkpt lat="28.909645" lon="104.1564447"><ele>847.39</ele><time>2026-01-15T22:04:20.000Z</time></trkpt>
        <trkpt lat="28.9096819" lon="104.1565422"><ele>846.85</ele><time>2026-01-15T22:04:34.000Z</time></trkpt>
        <trkpt lat="28.9097277" lon="104.1566364"><ele>848.41</ele><time>2026-01-15T22:04:44.000Z</time></trkpt>
        <trkpt lat="28.9098077" lon="104.1566783"><ele>850.02</ele><time>2026-01-15T22:04:52.000Z</time></trkpt>
        <trkpt lat="28.9099007" lon="104.1566778"><ele>851.9</ele><time>2026-01-15T22:05:00.000Z</time></trkpt>
        <trkpt lat="28.909994" lon="104.1566505"><ele>853.3</ele><time>2026-01-15T22:05:08.000Z</time></trkpt>
        <trkpt lat="28.9100922" lon="104.1566628"><ele>854.21</ele><time>2026-01-15T22:05:16.000Z</time></trkpt>
        <trkpt lat="28.9101671" lon="104.1567226"><ele>853.04</ele><time>2026-01-15T22:05:24.000Z</time></trkpt>
        <trkpt lat="28.9102043" lon="104.1567992"><ele>851.83</ele><time>2026-01-15T22:05:34.000Z</time></trkpt>
        <trkpt lat="28.9102244" lon="104.1569136"><ele>851.14</ele><time>2026-01-15T22:05:56.000Z</time></trkpt>
        <trkpt lat="28.9102721" lon="104.1570251"><ele>850.08</ele><time>2026-01-15T22:06:06.000Z</time></trkpt>
        <trkpt lat="28.9103443" lon="104.1571183"><ele>848.99</ele><time>2026-01-15T22:06:16.000Z</time></trkpt>
        <trkpt lat="28.910421" lon="104.1572067"><ele>848.34</ele><time>2026-01-15T22:06:26.000Z</time></trkpt>
        <trkpt lat="28.9104493" lon="104.1572343"><ele>847.91</ele><time>2026-01-15T22:06:30.000Z</time></trkpt>
        <trkpt lat="28.910417" lon="104.1573088"><ele>847.87</ele><time>2026-01-15T22:07:08.000Z</time></trkpt>
        <trkpt lat="28.9103431" lon="104.1573969"><ele>848.05</ele><time>2026-01-15T22:07:18.000Z</time></trkpt>
        <trkpt lat="28.9102902" lon="104.1575043"><ele>847.85</ele><time>2026-01-15T22:07:28.000Z</time></trkpt>
        <trkpt lat="28.9102655" lon="104.1576228"><ele>847.3</ele><time>2026-01-15T22:07:38.000Z</time></trkpt>
        <trkpt lat="28.9102759" lon="104.1577464"><ele>846.44</ele><time>2026-01-15T22:07:48.000Z</time></trkpt>
        <trkpt lat="28.9103165" lon="104.157858"><ele>845.5</ele><time>2026-01-15T22:07:58.000Z</time></trkpt>
        <trkpt lat="28.9104056" lon="104.1579256"><ele>844.25</ele><time>2026-01-15T22:08:08.000Z</time></trkpt>
        <trkpt lat="28.9105122" lon="104.1579298"><ele>843.82</ele><time>2026-01-15T22:08:18.000Z</time></trkpt>
        <trkpt lat="28.9106216" lon="104.1579233"><ele>843.59</ele><time>2026-01-15T22:08:28.000Z</time></trkpt>
        <trkpt lat="28.9107342" lon="104.15794"><ele>842.93</ele><time>2026-01-15T22:08:38.000Z</time></trkpt>
        <trkpt lat="28.9108255" lon="104.1579898"><ele>841.96</ele><time>2026-01-15T22:08:46.000Z</time></trkpt>
        <trkpt lat="28.9109193" lon="104.1580399"><ele>840.71</ele><time>2026-01-15T22:08:54.000Z</time></trkpt>
        <trkpt lat="28.911009" lon="104.1580843"><ele>839.61</ele><time>2026-01-15T22:09:02.000Z</time></trkpt>
        <trkpt lat="28.9111264" lon="104.1581469"><ele>839.19</ele><time>2026-01-15T22:09:10.000Z</time></trkpt>
        <trkpt lat="28.9112437" lon="104.158202"><ele>837.75</ele><time>2026-01-15T22:09:16.000Z</time></trkpt>
        <trkpt lat="28.9113188" lon="104.158282"><ele>836.92</ele><time>2026-01-15T22:09:24.000Z</time></trkpt>
        <trkpt lat="28.911379" lon="104.1583655"><ele>835.65</ele><time>2026-01-15T22:09:34.000Z</time></trkpt>
        <trkpt lat="28.9114523" lon="104.15844"><ele>834.05</ele><time>2026-01-15T22:09:44.000Z</time></trkpt>
        <trkpt lat="28.9115271" lon="104.158529"><ele>832.74</ele><time>2026-01-15T22:09:54.000Z</time></trkpt>
        <trkpt lat="28.9115793" lon="104.1586228"><ele>831.5</ele><time>2026-01-15T22:10:02.000Z</time></trkpt>
        <trkpt lat="28.9116206" lon="104.1587184"><ele>830.88</ele><time>2026-01-15T22:10:10.000Z</time></trkpt>
        <trkpt lat="28.9116681" lon="104.158819"><ele>830.55</ele><time>2026-01-15T22:10:20.000Z</time></trkpt>
        <trkpt lat="28.9117219" lon="104.1589136"><ele>830.72</ele><time>2026-01-15T22:10:30.000Z</time></trkpt>
        <trkpt lat="28.911786" lon="104.1590084"><ele>830.87</ele><time>2026-01-15T22:10:40.000Z</time></trkpt>
        <trkpt lat="28.9118498" lon="104.159096"><ele>831.28</ele><time>2026-01-15T22:10:50.000Z</time></trkpt>
        <trkpt lat="28.9118561" lon="104.1592018"><ele>832.23</ele><time>2026-01-15T22:11:08.000Z</time></trkpt>
        <trkpt lat="28.9118407" lon="104.1593198"><ele>833.02</ele><time>2026-01-15T22:11:26.000Z</time></trkpt>
        <trkpt lat="28.9118227" lon="104.1594334"><ele>833.6</ele><time>2026-01-15T22:11:36.000Z</time></trkpt>
        <trkpt lat="28.9118149" lon="104.1595401"><ele>833.77</ele><time>2026-01-15T22:11:46.000Z</time></trkpt>
        <trkpt lat="28.9118066" lon="104.1596479"><ele>833.74</ele><time>2026-01-15T22:11:56.000Z</time></trkpt>
        <trkpt lat="28.9118122" lon="104.1597621"><ele>833.39</ele><time>2026-01-15T22:12:06.000Z</time></trkpt>
        <trkpt lat="28.9118264" lon="104.1598844"><ele>832.87</ele><time>2026-01-15T22:12:16.000Z</time></trkpt>
        <trkpt lat="28.9118452" lon="104.1600034"><ele>832.93</ele><time>2026-01-15T22:12:26.000Z</time></trkpt>
        <trkpt lat="28.9118033" lon="104.1601019"><ele>832.82</ele><time>2026-01-15T22:12:36.000Z</time></trkpt>
        <trkpt lat="28.9117474" lon="104.1602008"><ele>832.02</ele><time>2026-01-15T22:12:46.000Z</time></trkpt>
        <trkpt lat="28.911691" lon="104.1603046"><ele>831.5</ele><time>2026-01-15T22:12:56.000Z</time></trkpt>
        <trkpt lat="28.9116741" lon="104.1604247"><ele>831.2</ele><time>2026-01-15T22:13:06.000Z</time></trkpt>
        <trkpt lat="28.9116632" lon="104.1605506"><ele>831.15</ele><time>2026-01-15T22:13:16.000Z</time></trkpt>
        <trkpt lat="28.911671" lon="104.1606714"><ele>831.12</ele><time>2026-01-15T22:13:26.000Z</time></trkpt>
        <trkpt lat="28.9116624" lon="104.1607772"><ele>831.97</ele><time>2026-01-15T22:13:36.000Z</time></trkpt>
        <trkpt lat="28.9116613" lon="104.1608869"><ele>833.35</ele><time>2026-01-15T22:13:50.000Z</time></trkpt>
        <trkpt lat="28.9116427" lon="104.1609964"><ele>834.25</ele><time>2026-01-15T22:14:08.000Z</time></trkpt>
        <trkpt lat="28.9116457" lon="104.1611078"><ele>834.59</ele><time>2026-01-15T22:14:22.000Z</time></trkpt>
        <trkpt lat="28.9116642" lon="104.1612139"><ele>834.59</ele><time>2026-01-15T22:16:30.000Z</time></trkpt>
        <trkpt lat="28.9116941" lon="104.1613261"><ele>833.8</ele><time>2026-01-15T22:16:40.000Z</time></trkpt>
        <trkpt lat="28.9117168" lon="104.1614498"><ele>833.53</ele><time>2026-01-15T22:16:50.000Z</time></trkpt>
        <trkpt lat="28.911735" lon="104.1615633"><ele>833.17</ele><time>2026-01-15T22:16:58.000Z</time></trkpt>
        <trkpt lat="28.9117481" lon="104.1616768"><ele>832.44</ele><time>2026-01-15T22:17:06.000Z</time></trkpt>
        <trkpt lat="28.9117574" lon="104.1617981"><ele>831.93</ele><time>2026-01-15T22:17:14.000Z</time></trkpt>
        <trkpt lat="28.9117461" lon="104.1619131"><ele>831.82</ele><time>2026-01-15T22:17:24.000Z</time></trkpt>
        <trkpt lat="28.9117502" lon="104.1620294"><ele>832.2</ele><time>2026-01-15T22:17:34.000Z</time></trkpt>
        <trkpt lat="28.9117807" lon="104.1621392"><ele>832.39</ele><time>2026-01-15T22:17:44.000Z</time></trkpt>
        <trkpt lat="28.9118105" lon="104.1622599"><ele>831.95</ele><time>2026-01-15T22:17:54.000Z</time></trkpt>
        <trkpt lat="28.911815" lon="104.1623806"><ele>831.21</ele><time>2026-01-15T22:18:04.000Z</time></trkpt>
        <trkpt lat="28.9117925" lon="104.1624973"><ele>830.44</ele><time>2026-01-15T22:18:14.000Z</time></trkpt>
        <trkpt lat="28.911772" lon="104.1626131"><ele>830.36</ele><time>2026-01-15T22:18:24.000Z</time></trkpt>
        <trkpt lat="28.9117803" lon="104.1627125"><ele>830.03</ele><time>2026-01-15T22:18:36.000Z</time></trkpt>
        <trkpt lat="28.9118213" lon="104.1628026"><ele>829.29</ele><time>2026-01-15T22:18:48.000Z</time></trkpt>
        <trkpt lat="28.9118356" lon="104.1629118"><ele>828.63</ele><time>2026-01-15T22:19:00.000Z</time></trkpt>
        <trkpt lat="28.9118349" lon="104.1630186"><ele>828.69</ele><time>2026-01-15T22:19:10.000Z</time></trkpt>
        <trkpt lat="28.9118845" lon="104.1631068"><ele>829</ele><time>2026-01-15T22:19:20.000Z</time></trkpt>
        <trkpt lat="28.9119705" lon="104.1631389"><ele>829.32</ele><time>2026-01-15T22:19:28.000Z</time></trkpt>
        <trkpt lat="28.9120672" lon="104.1631465"><ele>829.37</ele><time>2026-01-15T22:19:36.000Z</time></trkpt>
        <trkpt lat="28.9121692" lon="104.1631722"><ele>829.54</ele><time>2026-01-15T22:19:46.000Z</time></trkpt>
        <trkpt lat="28.9122515" lon="104.1632273"><ele>828.22</ele><time>2026-01-15T22:19:56.000Z</time></trkpt>
        <trkpt lat="28.9123183" lon="104.1633193"><ele>827.09</ele><time>2026-01-15T22:20:08.000Z</time></trkpt>
        <trkpt lat="28.912383" lon="104.1634011"><ele>826.56</ele><time>2026-01-15T22:20:18.000Z</time></trkpt>
        <trkpt lat="28.9124456" lon="104.1634828"><ele>826.27</ele><time>2026-01-15T22:20:28.000Z</time></trkpt>
        <trkpt lat="28.912467" lon="104.1635834"><ele>826.04</ele><time>2026-01-15T22:20:38.000Z</time></trkpt>
        <trkpt lat="28.9124357" lon="104.1636885"><ele>825.92</ele><time>2026-01-15T22:20:48.000Z</time></trkpt>
        <trkpt lat="28.9123946" lon="104.1637985"><ele>826.09</ele><time>2026-01-15T22:21:00.000Z</time></trkpt>
        <trkpt lat="28.9123329" lon="104.1638928"><ele>825.6</ele><time>2026-01-15T22:21:10.000Z</time></trkpt>
        <trkpt lat="28.91228" lon="104.164003"><ele>825.61</ele><time>2026-01-15T22:21:20.000Z</time></trkpt>
        <trkpt lat="28.9121994" lon="104.1640853"><ele>826.12</ele><time>2026-01-15T22:21:30.000Z</time></trkpt>
        <trkpt lat="28.9121086" lon="104.1641528"><ele>825.81</ele><time>2026-01-15T22:21:37.000Z</time></trkpt>
        <trkpt lat="28.9120649" lon="104.164169"><ele>825.12</ele><time>2026-01-15T22:21:41.000Z</time></trkpt>
        <trkpt lat="28.9120008" lon="104.1642087"><ele>824.74</ele><time>2026-01-15T22:21:59.000Z</time></trkpt>
        <trkpt lat="28.9119253" lon="104.1642735"><ele>824.19</ele><time>2026-01-15T22:22:09.000Z</time></trkpt>
        <trkpt lat="28.9118516" lon="104.1643494"><ele>823.14</ele><time>2026-01-15T22:22:19.000Z</time></trkpt>
        <trkpt lat="28.9117831" lon="104.1644411"><ele>822.43</ele><time>2026-01-15T22:22:39.000Z</time></trkpt>
        <trkpt lat="28.9116988" lon="104.1645109"><ele>821.98</ele><time>2026-01-15T22:22:49.000Z</time></trkpt>
        <trkpt lat="28.9116211" lon="104.1645789"><ele>821.33</ele><time>2026-01-15T22:22:59.000Z</time></trkpt>
        <trkpt lat="28.911551" lon="104.1646459"><ele>820.65</ele><time>2026-01-15T22:28:52.000Z</time></trkpt>
        <trkpt lat="28.9114865" lon="104.1647342"><ele>820.11</ele><time>2026-01-15T22:29:06.000Z</time></trkpt>
        <trkpt lat="28.9114208" lon="104.1648098"><ele>819.55</ele><time>2026-01-15T22:31:29.000Z</time></trkpt>
        <trkpt lat="28.9113644" lon="104.1648899"><ele>819.03</ele><time>2026-01-15T22:31:45.000Z</time></trkpt>
        <trkpt lat="28.9113" lon="104.1649621"><ele>818.35</ele><time>2026-01-15T22:32:55.000Z</time></trkpt>
        <trkpt lat="28.911216" lon="104.1650325"><ele>816.75</ele><time>2026-01-15T22:34:19.000Z</time></trkpt>
        <trkpt lat="28.9111391" lon="104.1650927"><ele>815.9</ele><time>2026-01-15T22:34:31.000Z</time></trkpt>
        <trkpt lat="28.9110749" lon="104.1651669"><ele>815.97</ele><time>2026-01-15T22:34:53.000Z</time></trkpt>
        <trkpt lat="28.9110647" lon="104.165189"><ele>816.48</ele><time>2026-01-15T22:34:57.000Z</time></trkpt>
        <trkpt lat="28.911002" lon="104.1652154"><ele>816.87</ele><time>2026-01-15T22:35:17.000Z</time></trkpt>
        <trkpt lat="28.9109489" lon="104.1652941"><ele>816.8</ele><time>2026-01-15T22:35:27.000Z</time></trkpt>
        <trkpt lat="28.9108951" lon="104.1653808"><ele>816.96</ele><time>2026-01-15T22:35:37.000Z</time></trkpt>
        <trkpt lat="28.9108315" lon="104.1654705"><ele>816.09</ele><time>2026-01-15T22:35:49.000Z</time></trkpt>
        <trkpt lat="28.9107638" lon="104.1655517"><ele>816.41</ele><time>2026-01-15T22:35:59.000Z</time></trkpt>
        <trkpt lat="28.9106881" lon="104.1656339"><ele>817.05</ele><time>2026-01-15T22:36:09.000Z</time></trkpt>
        <trkpt lat="28.9106359" lon="104.1657402"><ele>817.99</ele><time>2026-01-15T22:36:19.000Z</time></trkpt>
        <trkpt lat="28.9105948" lon="104.1658527"><ele>818.43</ele><time>2026-01-15T22:36:29.000Z</time></trkpt>
        <trkpt lat="28.9105315" lon="104.165959"><ele>818.17</ele><time>2026-01-15T22:36:40.000Z</time></trkpt>
        <trkpt lat="28.9104768" lon="104.1660672"><ele>816.89</ele><time>2026-01-15T22:36:50.000Z</time></trkpt>
        <trkpt lat="28.910468" lon="104.1661833"><ele>815.77</ele><time>2026-01-15T22:37:00.000Z</time></trkpt>
        <trkpt lat="28.9104922" lon="104.1662957"><ele>815.03</ele><time>2026-01-15T22:37:10.000Z</time></trkpt>
        <trkpt lat="28.9105588" lon="104.1663978"><ele>814.63</ele><time>2026-01-15T22:37:18.000Z</time></trkpt>
        <trkpt lat="28.9106237" lon="104.1664844"><ele>813.84</ele><time>2026-01-15T22:37:26.000Z</time></trkpt>
        <trkpt lat="28.9106802" lon="104.1665706"><ele>812.62</ele><time>2026-01-15T22:37:34.000Z</time></trkpt>
        <trkpt lat="28.910738" lon="104.1666657"><ele>812.21</ele><time>2026-01-15T22:37:44.000Z</time></trkpt>
        <trkpt lat="28.9107536" lon="104.1667787"><ele>811.89</ele><time>2026-01-15T22:37:54.000Z</time></trkpt>
        <trkpt lat="28.9107538" lon="104.1668885"><ele>810.56</ele><time>2026-01-15T22:38:02.000Z</time></trkpt>
        <trkpt lat="28.9107458" lon="104.1670084"><ele>808.88</ele><time>2026-01-15T22:38:12.000Z</time></trkpt>
        <trkpt lat="28.9107482" lon="104.1671309"><ele>805.81</ele><time>2026-01-15T22:38:22.000Z</time></trkpt>
        <trkpt lat="28.9107743" lon="104.1672507"><ele>804.95</ele><time>2026-01-15T22:38:32.000Z</time></trkpt>
        <trkpt lat="28.9108167" lon="104.1673613"><ele>806.38</ele><time>2026-01-15T22:38:45.000Z</time></trkpt>
        <trkpt lat="28.9108322" lon="104.1674812"><ele>806.02</ele><time>2026-01-15T22:38:57.000Z</time></trkpt>
        <trkpt lat="28.9108348" lon="104.1675993"><ele>804.66</ele><time>2026-01-15T22:39:07.000Z</time></trkpt>
        <trkpt lat="28.9108434" lon="104.1677152"><ele>803.5</ele><time>2026-01-15T22:39:17.000Z</time></trkpt>
        <trkpt lat="28.9108881" lon="104.1678218"><ele>801.89</ele><time>2026-01-15T22:39:27.000Z</time></trkpt>
        <trkpt lat="28.9109518" lon="104.1679157"><ele>800.16</ele><time>2026-01-15T22:39:37.000Z</time></trkpt>
        <trkpt lat="28.9110263" lon="104.1679843"><ele>799.02</ele><time>2026-01-15T22:39:45.000Z</time></trkpt>
        <trkpt lat="28.911121" lon="104.1680358"><ele>799.2</ele><time>2026-01-15T22:39:55.000Z</time></trkpt>
        <trkpt lat="28.9112082" lon="104.1680832"><ele>798.29</ele><time>2026-01-15T22:40:03.000Z</time></trkpt>
        <trkpt lat="28.9113077" lon="104.1681267"><ele>798.39</ele><time>2026-01-15T22:40:11.000Z</time></trkpt>
        <trkpt lat="28.9114202" lon="104.1681423"><ele>798.3</ele><time>2026-01-15T22:40:19.000Z</time></trkpt>
        <trkpt lat="28.911522" lon="104.1681352"><ele>797.4</ele><time>2026-01-15T22:40:27.000Z</time></trkpt>
        <trkpt lat="28.9116297" lon="104.1681359"><ele>796.2</ele><time>2026-01-15T22:40:37.000Z</time></trkpt>
        <trkpt lat="28.9117283" lon="104.1681513"><ele>796.49</ele><time>2026-01-15T22:40:47.000Z</time></trkpt>
        <trkpt lat="28.9118268" lon="104.1681819"><ele>797.55</ele><time>2026-01-15T22:40:59.000Z</time></trkpt>
        <trkpt lat="28.9119274" lon="104.1681774"><ele>798.84</ele><time>2026-01-15T22:41:09.000Z</time></trkpt>
        <trkpt lat="28.9120158" lon="104.1682068"><ele>800.29</ele><time>2026-01-15T22:41:25.000Z</time></trkpt>
        <trkpt lat="28.9121075" lon="104.1682369"><ele>800.7</ele><time>2026-01-15T22:41:35.000Z</time></trkpt>
        <trkpt lat="28.9122005" lon="104.1682595"><ele>800.63</ele><time>2026-01-15T22:41:47.000Z</time></trkpt>
        <trkpt lat="28.9122971" lon="104.1682744"><ele>799.69</ele><time>2026-01-15T22:41:57.000Z</time></trkpt>
        <trkpt lat="28.9123877" lon="104.1682615"><ele>800.76</ele><time>2026-01-15T22:42:07.000Z</time></trkpt>
        <trkpt lat="28.912476" lon="104.1682374"><ele>801.83</ele><time>2026-01-15T22:42:17.000Z</time></trkpt>
        <trkpt lat="28.9125659" lon="104.1682034"><ele>802.48</ele><time>2026-01-15T22:42:27.000Z</time></trkpt>
        <trkpt lat="28.9126563" lon="104.1681806"><ele>803.94</ele><time>2026-01-15T22:42:39.000Z</time></trkpt>
        <trkpt lat="28.9127588" lon="104.1681809"><ele>805.6</ele><time>2026-01-15T22:42:51.000Z</time></trkpt>
        <trkpt lat="28.9128549" lon="104.1682063"><ele>807.41</ele><time>2026-01-15T22:43:01.000Z</time></trkpt>
        <trkpt lat="28.9129444" lon="104.1682373"><ele>809.74</ele><time>2026-01-15T22:43:13.000Z</time></trkpt>
        <trkpt lat="28.9130339" lon="104.1682845"><ele>812.18</ele><time>2026-01-15T22:43:27.000Z</time></trkpt>
        <trkpt lat="28.913048" lon="104.1683843"><ele>814.05</ele><time>2026-01-15T22:43:41.000Z</time></trkpt>
        <trkpt lat="28.9129837" lon="104.1684685"><ele>814.08</ele><time>2026-01-15T22:43:53.000Z</time></trkpt>
        <trkpt lat="28.9128981" lon="104.1685455"><ele>812.81</ele><time>2026-01-15T22:44:03.000Z</time></trkpt>
        <trkpt lat="28.9128103" lon="104.1686099"><ele>811.24</ele><time>2026-01-15T22:44:13.000Z</time></trkpt>
        <trkpt lat="28.9127233" lon="104.1686789"><ele>810.84</ele><time>2026-01-15T22:44:23.000Z</time></trkpt>
        <trkpt lat="28.9126447" lon="104.1687514"><ele>810.04</ele><time>2026-01-15T22:44:33.000Z</time></trkpt>
        <trkpt lat="28.9125817" lon="104.1688454"><ele>809.17</ele><time>2026-01-15T22:44:43.000Z</time></trkpt>
        <trkpt lat="28.9125212" lon="104.1689395"><ele>807.98</ele><time>2026-01-15T22:44:53.000Z</time></trkpt>
        <trkpt lat="28.9124579" lon="104.1690294"><ele>807.03</ele><time>2026-01-15T22:45:03.000Z</time></trkpt>
        <trkpt lat="28.9123802" lon="104.1691102"><ele>805.19</ele><time>2026-01-15T22:45:13.000Z</time></trkpt>
        <trkpt lat="28.912316" lon="104.1691886"><ele>804.94</ele><time>2026-01-15T22:45:21.000Z</time></trkpt>
        <trkpt lat="28.9122625" lon="104.1692719"><ele>804.39</ele><time>2026-01-15T22:45:29.000Z</time></trkpt>
        <trkpt lat="28.9122028" lon="104.1693528"><ele>803.36</ele><time>2026-01-15T22:45:37.000Z</time></trkpt>
        <trkpt lat="28.9121303" lon="104.1694376"><ele>801.95</ele><time>2026-01-15T22:45:47.000Z</time></trkpt>
        <trkpt lat="28.9120432" lon="104.1694637"><ele>802.11</ele><time>2026-01-15T22:45:57.000Z</time></trkpt>
        <trkpt lat="28.9119421" lon="104.1694563"><ele>801.31</ele><time>2026-01-15T22:46:07.000Z</time></trkpt>
        <trkpt lat="28.9118425" lon="104.1694675"><ele>801.5</ele><time>2026-01-15T22:46:15.000Z</time></trkpt>
        <trkpt lat="28.9117506" lon="104.1695026"><ele>801.45</ele><time>2026-01-15T22:46:23.000Z</time></trkpt>
        <trkpt lat="28.9116633" lon="104.1695685"><ele>801.4</ele><time>2026-01-15T22:46:31.000Z</time></trkpt>
        <trkpt lat="28.91159" lon="104.1696502"><ele>800.98</ele><time>2026-01-15T22:46:39.000Z</time></trkpt>
        <trkpt lat="28.9114964" lon="104.1696986"><ele>801.26</ele><time>2026-01-15T22:46:49.000Z</time></trkpt>
        <trkpt lat="28.9113973" lon="104.1696954"><ele>800.73</ele><time>2026-01-15T22:46:59.000Z</time></trkpt>
        <trkpt lat="28.9112866" lon="104.1696898"><ele>799.57</ele><time>2026-01-15T22:47:09.000Z</time></trkpt>
        <trkpt lat="28.91119" lon="104.1697259"><ele>799.98</ele><time>2026-01-15T22:47:17.000Z</time></trkpt>
        <trkpt lat="28.9111764" lon="104.1698276"><ele>800.63</ele><time>2026-01-15T22:47:25.000Z</time></trkpt>
        <trkpt lat="28.9112277" lon="104.169941"><ele>798.77</ele><time>2026-01-15T22:47:33.000Z</time></trkpt>
        <trkpt lat="28.9112991" lon="104.1700433"><ele>796.92</ele><time>2026-01-15T22:47:41.000Z</time></trkpt>
        <trkpt lat="28.9113683" lon="104.1701471"><ele>794.25</ele><time>2026-01-15T22:47:49.000Z</time></trkpt>
        <trkpt lat="28.9114547" lon="104.1702212"><ele>792.43</ele><time>2026-01-15T22:47:57.000Z</time></trkpt>
        <trkpt lat="28.9115487" lon="104.1702538"><ele>792.35</ele><time>2026-01-15T22:48:05.000Z</time></trkpt>
        <trkpt lat="28.9116524" lon="104.1702786"><ele>793.7</ele><time>2026-01-15T22:48:15.000Z</time></trkpt>
        <trkpt lat="28.9117416" lon="104.1703297"><ele>795.06</ele><time>2026-01-15T22:48:25.000Z</time></trkpt>
        <trkpt lat="28.9118181" lon="104.1704095"><ele>795.8</ele><time>2026-01-15T22:48:35.000Z</time></trkpt>
        <trkpt lat="28.9118793" lon="104.1704986"><ele>797.86</ele><time>2026-01-15T22:48:47.000Z</time></trkpt>
        <trkpt lat="28.9118913" lon="104.1706022"><ele>800.71</ele><time>2026-01-15T22:49:01.000Z</time></trkpt>
        <trkpt lat="28.9119036" lon="104.1707176"><ele>801.7</ele><time>2026-01-15T22:49:59.000Z</time></trkpt>
        <trkpt lat="28.9118467" lon="104.1707956"><ele>803.1</ele><time>2026-01-15T22:50:09.000Z</time></trkpt>
        <trkpt lat="28.9118275" lon="104.1708045"><ele>803.65</ele><time>2026-01-15T22:50:11.000Z</time></trkpt>
        <trkpt lat="28.9117708" lon="104.1708628"><ele>804.54</ele><time>2026-01-15T22:50:35.000Z</time></trkpt>
        <trkpt lat="28.9117235" lon="104.1709579"><ele>803.91</ele><time>2026-01-15T22:50:47.000Z</time></trkpt>
        <trkpt lat="28.9117062" lon="104.1710645"><ele>803.24</ele><time>2026-01-15T22:51:01.000Z</time></trkpt>
        <trkpt lat="28.9116667" lon="104.1711631"><ele>804.57</ele><time>2026-01-15T22:51:15.000Z</time></trkpt>
        <trkpt lat="28.9116105" lon="104.1712465"><ele>805.55</ele><time>2026-01-15T22:51:27.000Z</time></trkpt>
        <trkpt lat="28.9115432" lon="104.1713249"><ele>805.92</ele><time>2026-01-15T22:51:39.000Z</time></trkpt>
        <trkpt lat="28.911458" lon="104.1713905"><ele>806.11</ele><time>2026-01-15T22:51:51.000Z</time></trkpt>
        <trkpt lat="28.9113721" lon="104.1714511"><ele>806.11</ele><time>2026-01-15T22:52:09.000Z</time></trkpt>
        <trkpt lat="28.9112864" lon="104.1715155"><ele>806.08</ele><time>2026-01-15T22:52:21.000Z</time></trkpt>
        <trkpt lat="28.9112076" lon="104.171594"><ele>806.12</ele><time>2026-01-15T22:52:33.000Z</time></trkpt>
        <trkpt lat="28.9111315" lon="104.171663"><ele>805.71</ele><time>2026-01-15T22:52:45.000Z</time></trkpt>
        <trkpt lat="28.9110707" lon="104.1717486"><ele>804.48</ele><time>2026-01-15T22:52:57.000Z</time></trkpt>
        <trkpt lat="28.9110081" lon="104.1718488"><ele>803.86</ele><time>2026-01-15T22:53:09.000Z</time></trkpt>
        <trkpt lat="28.9109475" lon="104.1719488"><ele>804.03</ele><time>2026-01-15T22:53:17.000Z</time></trkpt>
        <trkpt lat="28.9109003" lon="104.1719885"><ele>804.54</ele><time>2026-01-15T22:53:25.000Z</time></trkpt>
        <trkpt lat="28.9108233" lon="104.1720588"><ele>804.55</ele><time>2026-01-15T22:53:57.000Z</time></trkpt>
        <trkpt lat="28.9107341" lon="104.1721306"><ele>804.35</ele><time>2026-01-15T22:54:03.000Z</time></trkpt>
        <trkpt lat="28.9106492" lon="104.1721941"><ele>803.29</ele><time>2026-01-15T22:54:09.000Z</time></trkpt>
        <trkpt lat="28.9105742" lon="104.1722663"><ele>802.42</ele><time>2026-01-15T22:54:17.000Z</time></trkpt>
        <trkpt lat="28.9105173" lon="104.1723577"><ele>800.86</ele><time>2026-01-15T22:54:25.000Z</time></trkpt>
        <trkpt lat="28.9104746" lon="104.1724642"><ele>799.88</ele><time>2026-01-15T22:54:35.000Z</time></trkpt>
        <trkpt lat="28.9104232" lon="104.1725661"><ele>799.91</ele><time>2026-01-15T22:54:45.000Z</time></trkpt>
        <trkpt lat="28.910347" lon="104.1726502"><ele>800.13</ele><time>2026-01-15T22:54:55.000Z</time></trkpt>
        <trkpt lat="28.9102768" lon="104.1727305"><ele>800.17</ele><time>2026-01-15T22:55:05.000Z</time></trkpt>
        <trkpt lat="28.9102074" lon="104.1728139"><ele>800.22</ele><time>2026-01-15T22:55:15.000Z</time></trkpt>
        <trkpt lat="28.9101569" lon="104.1729215"><ele>799.64</ele><time>2026-01-15T22:55:25.000Z</time></trkpt>
        <trkpt lat="28.9101086" lon="104.1730346"><ele>798.63</ele><time>2026-01-15T22:55:35.000Z</time></trkpt>
        <trkpt lat="28.9101011" lon="104.1731147"><ele>798.03</ele><time>2026-01-15T22:55:41.000Z</time></trkpt>
        <trkpt lat="28.9100653" lon="104.1731972"><ele>796.99</ele><time>2026-01-15T22:55:53.000Z</time></trkpt>
        <trkpt lat="28.9100036" lon="104.1732704"><ele>797.49</ele><time>2026-01-15T22:56:03.000Z</time></trkpt>
        <trkpt lat="28.9099317" lon="104.1733542"><ele>796.4</ele><time>2026-01-15T22:56:13.000Z</time></trkpt>
        <trkpt lat="28.9098888" lon="104.1734492"><ele>795.31</ele><time>2026-01-15T22:56:23.000Z</time></trkpt>
        <trkpt lat="28.9098459" lon="104.1735434"><ele>794.78</ele><time>2026-01-15T22:56:33.000Z</time></trkpt>
        <trkpt lat="28.9097959" lon="104.1736449"><ele>794.83</ele><time>2026-01-15T22:56:47.000Z</time></trkpt>
        <trkpt lat="28.9097672" lon="104.173752"><ele>793.07</ele><time>2026-01-15T22:56:57.000Z</time></trkpt>
        <trkpt lat="28.9097334" lon="104.1738596"><ele>792.05</ele><time>2026-01-15T22:57:09.000Z</time></trkpt>
        <trkpt lat="28.9096869" lon="104.173969"><ele>791.31</ele><time>2026-01-15T22:57:21.000Z</time></trkpt>
        <trkpt lat="28.9096282" lon="104.1740642"><ele>790.3</ele><time>2026-01-15T22:57:31.000Z</time></trkpt>
        <trkpt lat="28.9095815" lon="104.1741664"><ele>789.32</ele><time>2026-01-15T22:57:41.000Z</time></trkpt>
        <trkpt lat="28.9095468" lon="104.174281"><ele>788.13</ele><time>2026-01-15T22:57:51.000Z</time></trkpt>
        <trkpt lat="28.9095617" lon="104.1743947"><ele>786.79</ele><time>2026-01-15T22:57:59.000Z</time></trkpt>
        <trkpt lat="28.9096075" lon="104.1745032"><ele>785.76</ele><time>2026-01-15T22:58:07.000Z</time></trkpt>
        <trkpt lat="28.9096721" lon="104.1745951"><ele>785.28</ele><time>2026-01-15T22:58:15.000Z</time></trkpt>
        <trkpt lat="28.9097486" lon="104.174687"><ele>785.97</ele><time>2026-01-15T22:58:25.000Z</time></trkpt>
        <trkpt lat="28.9098071" lon="104.1747796"><ele>786.72</ele><time>2026-01-15T22:58:35.000Z</time></trkpt>
        <trkpt lat="28.9098103" lon="104.1748897"><ele>786.58</ele><time>2026-01-15T22:58:47.000Z</time></trkpt>
        <trkpt lat="28.9097903" lon="104.1750039"><ele>784.69</ele><time>2026-01-15T22:58:57.000Z</time></trkpt>
        <trkpt lat="28.9097716" lon="104.1750839"><ele>783.67</ele><time>2026-01-15T22:59:03.000Z</time></trkpt>
        <trkpt lat="28.9098" lon="104.1751708"><ele>781.7</ele><time>2026-01-15T22:59:48.000Z</time></trkpt>
        <trkpt lat="28.9098561" lon="104.1752563"><ele>783.32</ele><time>2026-01-15T23:00:00.000Z</time></trkpt>
        <trkpt lat="28.9098782" lon="104.175361"><ele>784.5</ele><time>2026-01-15T23:00:10.000Z</time></trkpt>
        <trkpt lat="28.9098773" lon="104.1754742"><ele>785.27</ele><time>2026-01-15T23:00:20.000Z</time></trkpt>
        <trkpt lat="28.9098538" lon="104.1755792"><ele>785.55</ele><time>2026-01-15T23:00:28.000Z</time></trkpt>
        <trkpt lat="28.9098087" lon="104.1756735"><ele>786.42</ele><time>2026-01-15T23:00:36.000Z</time></trkpt>
        <trkpt lat="28.9097522" lon="104.1757637"><ele>786</ele><time>2026-01-15T23:00:44.000Z</time></trkpt>
        <trkpt lat="28.9097259" lon="104.1758624"><ele>786.9</ele><time>2026-01-15T23:00:52.000Z</time></trkpt>
        <trkpt lat="28.9097077" lon="104.1759713"><ele>785.86</ele><time>2026-01-15T23:01:00.000Z</time></trkpt>
        <trkpt lat="28.9096979" lon="104.176094"><ele>784.5</ele><time>2026-01-15T23:01:10.000Z</time></trkpt>
        <trkpt lat="28.9096956" lon="104.1761548"><ele>783.44</ele><time>2026-01-15T23:01:16.000Z</time></trkpt>
        <trkpt lat="28.9097418" lon="104.1762255"><ele>781.67</ele><time>2026-01-15T23:01:30.000Z</time></trkpt>
        <trkpt lat="28.9097707" lon="104.1763279"><ele>781.95</ele><time>2026-01-15T23:01:40.000Z</time></trkpt>
        <trkpt lat="28.9097423" lon="104.1764232"><ele>782.67</ele><time>2026-01-15T23:01:52.000Z</time></trkpt>
        <trkpt lat="28.9096988" lon="104.1765227"><ele>783.81</ele><time>2026-01-15T23:02:04.000Z</time></trkpt>
        <trkpt lat="28.9096268" lon="104.1766219"><ele>785.88</ele><time>2026-01-15T23:02:24.000Z</time></trkpt>
        <trkpt lat="28.9096136" lon="104.1766759"><ele>785.91</ele><time>2026-01-15T23:02:30.000Z</time></trkpt>
        <trkpt lat="28.9095625" lon="104.1767363"><ele>786.9</ele><time>2026-01-15T23:03:56.000Z</time></trkpt>
        <trkpt lat="28.9094973" lon="104.1768116"><ele>785.3</ele><time>2026-01-15T23:04:18.000Z</time></trkpt>
        <trkpt lat="28.9095241" lon="104.1768667"><ele>783.07</ele><time>2026-01-15T23:04:26.000Z</time></trkpt>
        <trkpt lat="28.9094857" lon="104.1769526"><ele>781.56</ele><time>2026-01-15T23:04:44.000Z</time></trkpt>
        <trkpt lat="28.9094511" lon="104.1770584"><ele>780.88</ele><time>2026-01-15T23:04:52.000Z</time></trkpt>
        <trkpt lat="28.909464" lon="104.1771111"><ele>779.83</ele><time>2026-01-15T23:04:56.000Z</time></trkpt>
        <trkpt lat="28.9094711" lon="104.1772113"><ele>780.56</ele><time>2026-01-15T23:05:14.000Z</time></trkpt>
        <trkpt lat="28.9094676" lon="104.1773277"><ele>781.67</ele><time>2026-01-15T23:05:22.000Z</time></trkpt>
        <trkpt lat="28.9094888" lon="104.1774611"><ele>781.84</ele><time>2026-01-15T23:05:30.000Z</time></trkpt>
        <trkpt lat="28.9095243" lon="104.1775736"><ele>782.8</ele><time>2026-01-15T23:05:36.000Z</time></trkpt>
        <trkpt lat="28.9095286" lon="104.1776836"><ele>783.75</ele><time>2026-01-15T23:05:46.000Z</time></trkpt>
        <trkpt lat="28.9094747" lon="104.1777744"><ele>783.04</ele><time>2026-01-15T23:05:56.000Z</time></trkpt>
        <trkpt lat="28.9094843" lon="104.1777909"><ele>780.99</ele><time>2026-01-15T23:06:00.000Z</time></trkpt>
        <trkpt lat="28.9094357" lon="104.1778316"><ele>778.94</ele><time>2026-01-15T23:06:24.000Z</time></trkpt>
        <trkpt lat="28.9093913" lon="104.1779227"><ele>776.12</ele><time>2026-01-15T23:06:38.000Z</time></trkpt>
        <trkpt lat="28.9093684" lon="104.1779307"><ele>775.91</ele><time>2026-01-15T23:06:40.000Z</time></trkpt>
        <trkpt lat="28.9093215" lon="104.177989"><ele>775.54</ele><time>2026-01-15T23:06:52.000Z</time></trkpt>
        <trkpt lat="28.9093118" lon="104.1780923"><ele>773.55</ele><time>2026-01-15T23:07:00.000Z</time></trkpt>
        <trkpt lat="28.9093342" lon="104.1782136"><ele>771.72</ele><time>2026-01-15T23:07:08.000Z</time></trkpt>
        <trkpt lat="28.9093599" lon="104.1783382"><ele>771.41</ele><time>2026-01-15T23:07:16.000Z</time></trkpt>
        <trkpt lat="28.9093409" lon="104.1784482"><ele>771.74</ele><time>2026-01-15T23:07:26.000Z</time></trkpt>
        <trkpt lat="28.909302" lon="104.1785455"><ele>771.54</ele><time>2026-01-15T23:07:36.000Z</time></trkpt>
        <trkpt lat="28.9092849" lon="104.1785978"><ele>771.28</ele><time>2026-01-15T23:07:40.000Z</time></trkpt>
        <trkpt lat="28.9092623" lon="104.178692"><ele>771.11</ele><time>2026-01-15T23:08:02.000Z</time></trkpt>
        <trkpt lat="28.9092134" lon="104.1787893"><ele>769.93</ele><time>2026-01-15T23:08:14.000Z</time></trkpt>
        <trkpt lat="28.9091679" lon="104.1788996"><ele>768.53</ele><time>2026-01-15T23:08:24.000Z</time></trkpt>
        <trkpt lat="28.9091475" lon="104.179019"><ele>768.16</ele><time>2026-01-15T23:08:34.000Z</time></trkpt>
        <trkpt lat="28.9091422" lon="104.1791407"><ele>769.18</ele><time>2026-01-15T23:08:44.000Z</time></trkpt>
        <trkpt lat="28.9091849" lon="104.1792354"><ele>769.47</ele><time>2026-01-15T23:08:52.000Z</time></trkpt>
        <trkpt lat="28.9092751" lon="104.179302"><ele>770.69</ele><time>2026-01-15T23:09:02.000Z</time></trkpt>
        <trkpt lat="28.9093662" lon="104.1793606"><ele>771.29</ele><time>2026-01-15T23:09:12.000Z</time></trkpt>
        <trkpt lat="28.9094711" lon="104.1793796"><ele>771.09</ele><time>2026-01-15T23:09:22.000Z</time></trkpt>
        <trkpt lat="28.9095773" lon="104.1793823"><ele>768.9</ele><time>2026-01-15T23:09:32.000Z</time></trkpt>
        <trkpt lat="28.9096777" lon="104.17938"><ele>767.65</ele><time>2026-01-15T23:09:42.000Z</time></trkpt>
        <trkpt lat="28.9097782" lon="104.1793422"><ele>766.38</ele><time>2026-01-15T23:09:52.000Z</time></trkpt>
        <trkpt lat="28.9098784" lon="104.1793096"><ele>765.41</ele><time>2026-01-15T23:10:10.000Z</time></trkpt>
        <trkpt lat="28.9099799" lon="104.1792986"><ele>764.96</ele><time>2026-01-15T23:10:24.000Z</time></trkpt>
        <trkpt lat="28.9099971" lon="104.1792824"><ele>764.05</ele><time>2026-01-15T23:10:26.000Z</time></trkpt>
        <trkpt lat="28.9100671" lon="104.1792992"><ele>763.32</ele><time>2026-01-15T23:10:42.000Z</time></trkpt>
        <trkpt lat="28.9101431" lon="104.1792659"><ele>762.51</ele><time>2026-01-15T23:10:52.000Z</time></trkpt>
        <trkpt lat="28.9102309" lon="104.1792546"><ele>762.02</ele><time>2026-01-15T23:11:00.000Z</time></trkpt>
        <trkpt lat="28.91033" lon="104.1792582"><ele>760.69</ele><time>2026-01-15T23:11:10.000Z</time></trkpt>
        <trkpt lat="28.9104355" lon="104.1792677"><ele>759.42</ele><time>2026-01-15T23:11:22.000Z</time></trkpt>
        <trkpt lat="28.9105436" lon="104.1792683"><ele>758.46</ele><time>2026-01-15T23:11:32.000Z</time></trkpt>
        <trkpt lat="28.910649" lon="104.1792489"><ele>757.57</ele><time>2026-01-15T23:12:02.000Z</time></trkpt>
        <trkpt lat="28.9107451" lon="104.1792149"><ele>756.07</ele><time>2026-01-15T23:12:12.000Z</time></trkpt>
        <trkpt lat="28.9108388" lon="104.1791665"><ele>753.34</ele><time>2026-01-15T23:12:44.000Z</time></trkpt>
        <trkpt lat="28.9109312" lon="104.1791142"><ele>751.39</ele><time>2026-01-15T23:12:54.000Z</time></trkpt>
        <trkpt lat="28.9110198" lon="104.1790684"><ele>749.56</ele><time>2026-01-15T23:13:02.000Z</time></trkpt>
        <trkpt lat="28.9111141" lon="104.1790495"><ele>748</ele><time>2026-01-15T23:13:12.000Z</time></trkpt>
        <trkpt lat="28.9112105" lon="104.1790103"><ele>747.83</ele><time>2026-01-15T23:13:24.000Z</time></trkpt>
        <trkpt lat="28.9113147" lon="104.1789889"><ele>746.99</ele><time>2026-01-15T23:13:34.000Z</time></trkpt>
        <trkpt lat="28.9114216" lon="104.1789588"><ele>745.59</ele><time>2026-01-15T23:13:44.000Z</time></trkpt>
        <trkpt lat="28.9115138" lon="104.1789224"><ele>744.05</ele><time>2026-01-15T23:13:52.000Z</time></trkpt>
        <trkpt lat="28.9115985" lon="104.1788782"><ele>742.53</ele><time>2026-01-15T23:14:00.000Z</time></trkpt>
        <trkpt lat="28.9116819" lon="104.1788068"><ele>741.14</ele><time>2026-01-15T23:14:10.000Z</time></trkpt>
        <trkpt lat="28.9117718" lon="104.1787499"><ele>739.36</ele><time>2026-01-15T23:14:20.000Z</time></trkpt>
        <trkpt lat="28.9118697" lon="104.1787191"><ele>738.22</ele><time>2026-01-15T23:14:30.000Z</time></trkpt>
        <trkpt lat="28.9119749" lon="104.1786952"><ele>738.95</ele><time>2026-01-15T23:14:42.000Z</time></trkpt>
        <trkpt lat="28.9120695" lon="104.1786743"><ele>739.4</ele><time>2026-01-15T23:14:52.000Z</time></trkpt>
        <trkpt lat="28.9121598" lon="104.1786569"><ele>739.41</ele><time>2026-01-15T23:15:02.000Z</time></trkpt>
        <trkpt lat="28.9122509" lon="104.1786717"><ele>738.04</ele><time>2026-01-15T23:15:12.000Z</time></trkpt>
        <trkpt lat="28.9123468" lon="104.1787022"><ele>737.3</ele><time>2026-01-15T23:15:24.000Z</time></trkpt>
        <trkpt lat="28.912447" lon="104.1787244"><ele>736.63</ele><time>2026-01-15T23:15:34.000Z</time></trkpt>
        <trkpt lat="28.9125493" lon="104.1787402"><ele>734.64</ele><time>2026-01-15T23:15:44.000Z</time></trkpt>
        <trkpt lat="28.9126366" lon="104.1787802"><ele>732.36</ele><time>2026-01-15T23:15:54.000Z</time></trkpt>
        <trkpt lat="28.9127072" lon="104.1788474"><ele>730.33</ele><time>2026-01-15T23:16:04.000Z</time></trkpt>
        <trkpt lat="28.9127425" lon="104.178943"><ele>728.15</ele><time>2026-01-15T23:16:14.000Z</time></trkpt>
        <trkpt lat="28.9127727" lon="104.179054"><ele>725.96</ele><time>2026-01-15T23:16:26.000Z</time></trkpt>
        <trkpt lat="28.9128334" lon="104.1790288"><ele>723.21</ele><time>2026-01-15T23:16:42.000Z</time></trkpt>
        <trkpt lat="28.9128711" lon="104.1789331"><ele>720.96</ele><time>2026-01-15T23:16:52.000Z</time></trkpt>
        <trkpt lat="28.9128755" lon="104.1788123"><ele>719.23</ele><time>2026-01-15T23:17:02.000Z</time></trkpt>
        <trkpt lat="28.9128771" lon="104.1786925"><ele>717.61</ele><time>2026-01-15T23:17:12.000Z</time></trkpt>
        <trkpt lat="28.9128308" lon="104.178586"><ele>716.83</ele><time>2026-01-15T23:17:24.000Z</time></trkpt>
        <trkpt lat="28.9128535" lon="104.1784941"><ele>715.56</ele><time>2026-01-15T23:17:58.000Z</time></trkpt>
        <trkpt lat="28.9128541" lon="104.178386"><ele>714.23</ele><time>2026-01-15T23:18:32.000Z</time></trkpt>
        <trkpt lat="28.9129152" lon="104.1783148"><ele>710.55</ele><time>2026-01-15T23:18:48.000Z</time></trkpt>
        <trkpt lat="28.9129976" lon="104.1782545"><ele>708.49</ele><time>2026-01-15T23:19:08.000Z</time></trkpt>
        <trkpt lat="28.9130657" lon="104.1783082"><ele>705.83</ele><time>2026-01-15T23:19:28.000Z</time></trkpt>
        <trkpt lat="28.9130815" lon="104.1782543"><ele>702.97</ele><time>2026-01-15T23:19:42.000Z</time></trkpt>
        <trkpt lat="28.9130377" lon="104.1781704"><ele>699.78</ele><time>2026-01-15T23:19:54.000Z</time></trkpt>
        <trkpt lat="28.9129502" lon="104.1781134"><ele>697.43</ele><time>2026-01-15T23:20:06.000Z</time></trkpt>
        <trkpt lat="28.9128392" lon="104.1780941"><ele>695.91</ele><time>2026-01-15T23:20:18.000Z</time></trkpt>
        <trkpt lat="28.9128214" lon="104.1780772"><ele>694.39</ele><time>2026-01-15T23:20:42.000Z</time></trkpt>
        <trkpt lat="28.9127384" lon="104.178084"><ele>698.34</ele><time>2026-01-15T23:20:52.000Z</time></trkpt>
        <trkpt lat="28.912634" lon="104.1781046"><ele>698.11</ele><time>2026-01-15T23:21:00.000Z</time></trkpt>
        <trkpt lat="28.9125296" lon="104.1781222"><ele>695.93</ele><time>2026-01-15T23:21:08.000Z</time></trkpt>
        <trkpt lat="28.9124887" lon="104.1781286"><ele>693.35</ele><time>2026-01-15T23:21:12.000Z</time></trkpt>
        <trkpt lat="28.9124131" lon="104.1781241"><ele>691.79</ele><time>2026-01-15T23:21:24.000Z</time></trkpt>
        <trkpt lat="28.9123163" lon="104.1781101"><ele>690.72</ele><time>2026-01-15T23:21:34.000Z</time></trkpt>
        <trkpt lat="28.9122093" lon="104.1780712"><ele>689.41</ele><time>2026-01-15T23:21:44.000Z</time></trkpt>
        <trkpt lat="28.9121044" lon="104.1780183"><ele>688.77</ele><time>2026-01-15T23:21:54.000Z</time></trkpt>
        <trkpt lat="28.9119955" lon="104.1779924"><ele>687.92</ele><time>2026-01-15T23:22:04.000Z</time></trkpt>
        <trkpt lat="28.9118837" lon="104.1779836"><ele>686.73</ele><time>2026-01-15T23:22:14.000Z</time></trkpt>
        <trkpt lat="28.9117882" lon="104.1779619"><ele>685.36</ele><time>2026-01-15T23:22:22.000Z</time></trkpt>
        <trkpt lat="28.9116898" lon="104.1779188"><ele>684.41</ele><time>2026-01-15T23:22:32.000Z</time></trkpt>
        <trkpt lat="28.9116143" lon="104.1778865"><ele>683.5</ele><time>2026-01-15T23:22:40.000Z</time></trkpt>
        <trkpt lat="28.9115282" lon="104.1778548"><ele>682.67</ele><time>2026-01-15T23:22:50.000Z</time></trkpt>
        <trkpt lat="28.9114407" lon="104.1778241"><ele>681.83</ele><time>2026-01-15T23:23:00.000Z</time></trkpt>
        <trkpt lat="28.911352" lon="104.1777892"><ele>680.88</ele><time>2026-01-15T23:23:10.000Z</time></trkpt>
        <trkpt lat="28.9112633" lon="104.1777412"><ele>679.38</ele><time>2026-01-15T23:23:20.000Z</time></trkpt>
        <trkpt lat="28.9112189" lon="104.1777037"><ele>678.89</ele><time>2026-01-15T23:23:28.000Z</time></trkpt>
        <trkpt lat="28.9111517" lon="104.1776594"><ele>678.68</ele><time>2026-01-15T23:25:10.000Z</time></trkpt>
        <trkpt lat="28.9111503" lon="104.1775564"><ele>677.19</ele><time>2026-01-15T23:25:20.000Z</time></trkpt>
        <trkpt lat="28.9111677" lon="104.1774525"><ele>676.06</ele><time>2026-01-15T23:25:30.000Z</time></trkpt>
        <trkpt lat="28.9111926" lon="104.1773472"><ele>674.61</ele><time>2026-01-15T23:25:40.000Z</time></trkpt>
        <trkpt lat="28.9112178" lon="104.1772352"><ele>673.87</ele><time>2026-01-15T23:25:52.000Z</time></trkpt>
        <trkpt lat="28.9112449" lon="104.1771266"><ele>673.98</ele><time>2026-01-15T23:26:02.000Z</time></trkpt>
        <trkpt lat="28.9112717" lon="104.1770217"><ele>674.47</ele><time>2026-01-15T23:26:12.000Z</time></trkpt>
        <trkpt lat="28.9113326" lon="104.1769288"><ele>674.27</ele><time>2026-01-15T23:26:24.000Z</time></trkpt>
        <trkpt lat="28.9114074" lon="104.1768507"><ele>674.28</ele><time>2026-01-15T23:26:34.000Z</time></trkpt>
        <trkpt lat="28.9114876" lon="104.1767782"><ele>674.27</ele><time>2026-01-15T23:26:44.000Z</time></trkpt>
        <trkpt lat="28.911572" lon="104.1767229"><ele>674.37</ele><time>2026-01-15T23:26:54.000Z</time></trkpt>
        <trkpt lat="28.9116667" lon="104.1766935"><ele>674.47</ele><time>2026-01-15T23:27:04.000Z</time></trkpt>
        <trkpt lat="28.9117652" lon="104.1766779"><ele>674.93</ele><time>2026-01-15T23:27:24.000Z</time></trkpt>
        <trkpt lat="28.9118648" lon="104.17666"><ele>675.65</ele><time>2026-01-15T23:27:36.000Z</time></trkpt>
        <trkpt lat="28.9119348" lon="104.1765827"><ele>675.14</ele><time>2026-01-15T23:27:46.000Z</time></trkpt>
        <trkpt lat="28.9120159" lon="104.1765036"><ele>673.18</ele><time>2026-01-15T23:27:58.000Z</time></trkpt>
        <trkpt lat="28.9120939" lon="104.1764188"><ele>671.83</ele><time>2026-01-15T23:28:10.000Z</time></trkpt>
        <trkpt lat="28.9121177" lon="104.1763072"><ele>670.98</ele><time>2026-01-15T23:28:24.000Z</time></trkpt>
        <trkpt lat="28.912099" lon="104.1761937"><ele>668.22</ele><time>2026-01-15T23:28:34.000Z</time></trkpt>
        <trkpt lat="28.9120669" lon="104.1760824"><ele>666.02</ele><time>2026-01-15T23:28:44.000Z</time></trkpt>
        <trkpt lat="28.9120215" lon="104.1759853"><ele>664.56</ele><time>2026-01-15T23:28:54.000Z</time></trkpt>
        <trkpt lat="28.9119632" lon="104.1758981"><ele>663.55</ele><time>2026-01-15T23:29:04.000Z</time></trkpt>
        <trkpt lat="28.9119157" lon="104.1757906"><ele>662.32</ele><time>2026-01-15T23:29:16.000Z</time></trkpt>
        <trkpt lat="28.9118969" lon="104.1756787"><ele>661.15</ele><time>2026-01-15T23:29:26.000Z</time></trkpt>
        <trkpt lat="28.9118827" lon="104.1755619"><ele>660.53</ele><time>2026-01-15T23:29:36.000Z</time></trkpt>
        <trkpt lat="28.9119164" lon="104.1754517"><ele>659.72</ele><time>2026-01-15T23:29:46.000Z</time></trkpt>
        <trkpt lat="28.9119776" lon="104.175356"><ele>659.46</ele><time>2026-01-15T23:29:56.000Z</time></trkpt>
        <trkpt lat="28.9120611" lon="104.1752887"><ele>658.97</ele><time>2026-01-15T23:30:06.000Z</time></trkpt>
        <trkpt lat="28.9121563" lon="104.1752807"><ele>658.7</ele><time>2026-01-15T23:30:16.000Z</time></trkpt>
        <trkpt lat="28.9122543" lon="104.1753135"><ele>657.96</ele><time>2026-01-15T23:30:26.000Z</time></trkpt>
        <trkpt lat="28.9123555" lon="104.1753427"><ele>656.52</ele><time>2026-01-15T23:30:40.000Z</time></trkpt>
        <trkpt lat="28.9124576" lon="104.1753682"><ele>655.08</ele><time>2026-01-15T23:30:50.000Z</time></trkpt>
        <trkpt lat="28.912555" lon="104.175408"><ele>654.25</ele><time>2026-01-15T23:31:00.000Z</time></trkpt>
        <trkpt lat="28.912653" lon="104.1754022"><ele>653.49</ele><time>2026-01-15T23:31:10.000Z</time></trkpt>
        <trkpt lat="28.9127371" lon="104.1753539"><ele>652.61</ele><time>2026-01-15T23:31:18.000Z</time></trkpt>
        <trkpt lat="28.9128268" lon="104.1753018"><ele>651.8</ele><time>2026-01-15T23:31:28.000Z</time></trkpt>
        <trkpt lat="28.9129259" lon="104.1752872"><ele>650.82</ele><time>2026-01-15T23:31:38.000Z</time></trkpt>
        <trkpt lat="28.9130298" lon="104.1753008"><ele>650.07</ele><time>2026-01-15T23:31:48.000Z</time></trkpt>
        <trkpt lat="28.9131378" lon="104.175309"><ele>649.49</ele><time>2026-01-15T23:31:58.000Z</time></trkpt>
        <trkpt lat="28.9132395" lon="104.1752896"><ele>648.76</ele><time>2026-01-15T23:32:08.000Z</time></trkpt>
        <trkpt lat="28.9133264" lon="104.1752436"><ele>647.9</ele><time>2026-01-15T23:32:16.000Z</time></trkpt>
        <trkpt lat="28.9134019" lon="104.1751753"><ele>647.59</ele><time>2026-01-15T23:32:24.000Z</time></trkpt>
        <trkpt lat="28.9134741" lon="104.1750853"><ele>646.87</ele><time>2026-01-15T23:32:34.000Z</time></trkpt>
        <trkpt lat="28.9135168" lon="104.1749805"><ele>644.91</ele><time>2026-01-15T23:32:46.000Z</time></trkpt>
        <trkpt lat="28.9135503" lon="104.1748717"><ele>641.74</ele><time>2026-01-15T23:32:58.000Z</time></trkpt>
        <trkpt lat="28.9135851" lon="104.1747618"><ele>638.66</ele><time>2026-01-15T23:33:08.000Z</time></trkpt>
        <trkpt lat="28.9136353" lon="104.1746623"><ele>636.65</ele><time>2026-01-15T23:33:20.000Z</time></trkpt>
        <trkpt lat="28.9136902" lon="104.1745708"><ele>635.16</ele><time>2026-01-15T23:33:48.000Z</time></trkpt>
        <trkpt lat="28.913754" lon="104.1744839"><ele>634.18</ele><time>2026-01-15T23:34:00.000Z</time></trkpt>
        <trkpt lat="28.9138239" lon="104.174409"><ele>633.25</ele><time>2026-01-15T23:34:10.000Z</time></trkpt>
        <trkpt lat="28.9138888" lon="104.1743268"><ele>633.02</ele><time>2026-01-15T23:34:20.000Z</time></trkpt>
        <trkpt lat="28.9139446" lon="104.174241"><ele>632.04</ele><time>2026-01-15T23:34:30.000Z</time></trkpt>
        <trkpt lat="28.9139961" lon="104.1741549"><ele>630.55</ele><time>2026-01-15T23:34:40.000Z</time></trkpt>
        <trkpt lat="28.914045" lon="104.1740669"><ele>629.07</ele><time>2026-01-15T23:34:50.000Z</time></trkpt>
        <trkpt lat="28.9140882" lon="104.1739755"><ele>627.51</ele><time>2026-01-15T23:35:00.000Z</time></trkpt>
        <trkpt lat="28.9141334" lon="104.1738785"><ele>626.31</ele><time>2026-01-15T23:35:10.000Z</time></trkpt>
        <trkpt lat="28.9141797" lon="104.173777"><ele>625.24</ele><time>2026-01-15T23:35:26.000Z</time></trkpt>
        <trkpt lat="28.9142306" lon="104.1736709"><ele>623.48</ele><time>2026-01-15T23:35:38.000Z</time></trkpt>
        <trkpt lat="28.9142807" lon="104.1735738"><ele>620.81</ele><time>2026-01-15T23:35:50.000Z</time></trkpt>
        <trkpt lat="28.9143222" lon="104.1734764"><ele>618.58</ele><time>2026-01-15T23:36:00.000Z</time></trkpt>
        <trkpt lat="28.9143542" lon="104.1733669"><ele>616.39</ele><time>2026-01-15T23:36:12.000Z</time></trkpt>
        <trkpt lat="28.9143655" lon="104.1732549"><ele>614.16</ele><time>2026-01-15T23:36:24.000Z</time></trkpt>
        <trkpt lat="28.9143896" lon="104.1731463"><ele>611.84</ele><time>2026-01-15T23:36:36.000Z</time></trkpt>
        <trkpt lat="28.9144417" lon="104.1730526"><ele>609.82</ele><time>2026-01-15T23:36:48.000Z</time></trkpt>
        <trkpt lat="28.914532" lon="104.1730096"><ele>609.18</ele><time>2026-01-15T23:37:00.000Z</time></trkpt>
        <trkpt lat="28.9146209" lon="104.172954"><ele>608.03</ele><time>2026-01-15T23:37:10.000Z</time></trkpt>
        <trkpt lat="28.9146915" lon="104.1728663"><ele>606.27</ele><time>2026-01-15T23:37:20.000Z</time></trkpt>
        <trkpt lat="28.9147466" lon="104.1727588"><ele>604.67</ele><time>2026-01-15T23:37:30.000Z</time></trkpt>
        <trkpt lat="28.9147989" lon="104.1726532"><ele>603.46</ele><time>2026-01-15T23:37:40.000Z</time></trkpt>
        <trkpt lat="28.9148586" lon="104.1725636"><ele>602.43</ele><time>2026-01-15T23:37:50.000Z</time></trkpt>
        <trkpt lat="28.9149052" lon="104.1724649"><ele>601.39</ele><time>2026-01-15T23:38:00.000Z</time></trkpt>
        <trkpt lat="28.9149173" lon="104.1723519"><ele>600.54</ele><time>2026-01-15T23:38:10.000Z</time></trkpt>
        <trkpt lat="28.9148966" lon="104.1722352"><ele>599.42</ele><time>2026-01-15T23:38:22.000Z</time></trkpt>
        <trkpt lat="28.9149305" lon="104.17213"><ele>597.95</ele><time>2026-01-15T23:38:34.000Z</time></trkpt>
        <trkpt lat="28.9150193" lon="104.1720814"><ele>596.12</ele><time>2026-01-15T23:38:46.000Z</time></trkpt>
        <trkpt lat="28.9151031" lon="104.1720125"><ele>594.56</ele><time>2026-01-15T23:38:56.000Z</time></trkpt>
        <trkpt lat="28.915155" lon="104.1719212"><ele>592.82</ele><time>2026-01-15T23:39:06.000Z</time></trkpt>
        <trkpt lat="28.9151954" lon="104.171818"><ele>590.94</ele><time>2026-01-15T23:39:16.000Z</time></trkpt>
        <trkpt lat="28.9152303" lon="104.1717183"><ele>589.41</ele><time>2026-01-15T23:39:26.000Z</time></trkpt>
        <trkpt lat="28.9153014" lon="104.1716474"><ele>588</ele><time>2026-01-15T23:39:38.000Z</time></trkpt>
        <trkpt lat="28.9153967" lon="104.1716109"><ele>586.41</ele><time>2026-01-15T23:39:50.000Z</time></trkpt>
        <trkpt lat="28.9154936" lon="104.1715695"><ele>585.45</ele><time>2026-01-15T23:40:00.000Z</time></trkpt>
        <trkpt lat="28.9155792" lon="104.1715086"><ele>584.52</ele><time>2026-01-15T23:40:10.000Z</time></trkpt>
        <trkpt lat="28.9156443" lon="104.171424"><ele>583.12</ele><time>2026-01-15T23:40:20.000Z</time></trkpt>
        <trkpt lat="28.9157175" lon="104.1713382"><ele>581.34</ele><time>2026-01-15T23:40:32.000Z</time></trkpt>
        <trkpt lat="28.9158005" lon="104.1712847"><ele>579.28</ele><time>2026-01-15T23:40:42.000Z</time></trkpt>
        <trkpt lat="28.9158835" lon="104.1712364"><ele>577.78</ele><time>2026-01-15T23:40:52.000Z</time></trkpt>
        <trkpt lat="28.9159478" lon="104.1711901"><ele>576.39</ele><time>2026-01-15T23:41:00.000Z</time></trkpt>
        <trkpt lat="28.9159797" lon="104.1711037"><ele>575.56</ele><time>2026-01-15T23:41:14.000Z</time></trkpt>
        <trkpt lat="28.9159379" lon="104.1710066"><ele>574.56</ele><time>2026-01-15T23:41:28.000Z</time></trkpt>
        <trkpt lat="28.9158389" lon="104.1709681"><ele>572.64</ele><time>2026-01-15T23:41:42.000Z</time></trkpt>
        <trkpt lat="28.9157325" lon="104.1709547"><ele>570.67</ele><time>2026-01-15T23:41:54.000Z</time></trkpt>
        <trkpt lat="28.9156378" lon="104.1709186"><ele>568.93</ele><time>2026-01-15T23:42:08.000Z</time></trkpt>
        <trkpt lat="28.9155648" lon="104.1708383"><ele>566.47</ele><time>2026-01-15T23:42:22.000Z</time></trkpt>
        <trkpt lat="28.9155123" lon="104.1707476"><ele>561.97</ele><time>2026-01-15T23:42:32.000Z</time></trkpt>
        <trkpt lat="28.9154693" lon="104.1706433"><ele>558.01</ele><time>2026-01-15T23:42:44.000Z</time></trkpt>
        <trkpt lat="28.9154156" lon="104.170543"><ele>554.07</ele><time>2026-01-15T23:42:56.000Z</time></trkpt>
        <trkpt lat="28.9153819" lon="104.1704321"><ele>549.83</ele><time>2026-01-15T23:43:10.000Z</time></trkpt>
        <trkpt lat="28.9153848" lon="104.170325"><ele>546.32</ele><time>2026-01-15T23:43:20.000Z</time></trkpt>
        <trkpt lat="28.9154281" lon="104.1702291"><ele>544.75</ele><time>2026-01-15T23:43:30.000Z</time></trkpt>
        <trkpt lat="28.9155169" lon="104.1701695"><ele>545.77</ele><time>2026-01-15T23:43:42.000Z</time></trkpt>
        <trkpt lat="28.9156163" lon="104.1701671"><ele>547.68</ele><time>2026-01-15T23:43:52.000Z</time></trkpt>
        <trkpt lat="28.915712" lon="104.1701976"><ele>548.88</ele><time>2026-01-15T23:44:02.000Z</time></trkpt>
        <trkpt lat="28.9157966" lon="104.1702534"><ele>549.36</ele><time>2026-01-15T23:44:10.000Z</time></trkpt>
        <trkpt lat="28.9158522" lon="104.1702778"><ele>550</ele><time>2026-01-15T23:44:18.000Z</time></trkpt>
        <trkpt lat="28.9159361" lon="104.1703177"><ele>550.55</ele><time>2026-01-15T23:44:44.000Z</time></trkpt>
        <trkpt lat="28.9160319" lon="104.1703431"><ele>549.18</ele><time>2026-01-15T23:44:54.000Z</time></trkpt>
        <trkpt lat="28.9161286" lon="104.1703438"><ele>547.13</ele><time>2026-01-15T23:45:04.000Z</time></trkpt>
        <trkpt lat="28.9162245" lon="104.1703373"><ele>545.2</ele><time>2026-01-15T23:45:16.000Z</time></trkpt>
        <trkpt lat="28.9163" lon="104.1703488"><ele>543.91</ele><time>2026-01-15T23:45:28.000Z</time></trkpt>
        <trkpt lat="28.9163771" lon="104.170388"><ele>542.61</ele><time>2026-01-15T23:45:48.000Z</time></trkpt>
        <trkpt lat="28.916447" lon="104.1704627"><ele>540.29</ele><time>2026-01-15T23:46:02.000Z</time></trkpt>
        <trkpt lat="28.9165126" lon="104.1705507"><ele>537.13</ele><time>2026-01-15T23:46:16.000Z</time></trkpt>
        <trkpt lat="28.9165946" lon="104.1705959"><ele>534.21</ele><time>2026-01-15T23:46:26.000Z</time></trkpt>
        <trkpt lat="28.916682" lon="104.1705797"><ele>533</ele><time>2026-01-15T23:46:36.000Z</time></trkpt>
        <trkpt lat="28.9167801" lon="104.1705428"><ele>531.98</ele><time>2026-01-15T23:46:48.000Z</time></trkpt>
        <trkpt lat="28.9168743" lon="104.1705183"><ele>530.54</ele><time>2026-01-15T23:46:58.000Z</time></trkpt>
        <trkpt lat="28.9169712" lon="104.1705458"><ele>528.99</ele><time>2026-01-15T23:47:10.000Z</time></trkpt>
        <trkpt lat="28.917055" lon="104.1705977"><ele>527.55</ele><time>2026-01-15T23:47:22.000Z</time></trkpt>
        <trkpt lat="28.9171386" lon="104.1706459"><ele>526.5</ele><time>2026-01-15T23:47:34.000Z</time></trkpt>
        <trkpt lat="28.9172176" lon="104.1707128"><ele>524.63</ele><time>2026-01-15T23:47:46.000Z</time></trkpt>
        <trkpt lat="28.9172958" lon="104.1707735"><ele>521.96</ele><time>2026-01-15T23:47:58.000Z</time></trkpt>
        <trkpt lat="28.9173915" lon="104.1707772"><ele>519.78</ele><time>2026-01-15T23:48:10.000Z</time></trkpt>
        <trkpt lat="28.9174903" lon="104.1707441"><ele>517.06</ele><time>2026-01-15T23:48:22.000Z</time></trkpt>
        <trkpt lat="28.9175882" lon="104.1707067"><ele>514.09</ele><time>2026-01-15T23:48:34.000Z</time></trkpt>
        <trkpt lat="28.9176905" lon="104.1706786"><ele>511.1</ele><time>2026-01-15T23:48:52.000Z</time></trkpt>
        <trkpt lat="28.9177746" lon="104.1706099"><ele>509.11</ele><time>2026-01-15T23:49:08.000Z</time></trkpt>
        <trkpt lat="28.9178411" lon="104.1705246"><ele>506.44</ele><time>2026-01-15T23:49:20.000Z</time></trkpt>
        <trkpt lat="28.9179128" lon="104.1704497"><ele>503.14</ele><time>2026-01-15T23:49:34.000Z</time></trkpt>
        <trkpt lat="28.9179314" lon="104.1705123"><ele>500.81</ele><time>2026-01-15T23:50:02.000Z</time></trkpt>
        <trkpt lat="28.9178863" lon="104.1706066"><ele>497.09</ele><time>2026-01-15T23:50:16.000Z</time></trkpt>
        <trkpt lat="28.9178571" lon="104.1707273"><ele>494.6</ele><time>2026-01-15T23:50:30.000Z</time></trkpt>
        <trkpt lat="28.9179249" lon="104.1707546"><ele>492.5</ele><time>2026-01-15T23:50:56.000Z</time></trkpt>
        <trkpt lat="28.9180149" lon="104.1707071"><ele>490.47</ele><time>2026-01-15T23:51:08.000Z</time></trkpt>
        <trkpt lat="28.9181192" lon="104.1705995"><ele>488.2</ele><time>2026-01-15T23:51:50.000Z</time></trkpt>
        <trkpt lat="28.9182059" lon="104.1705113"><ele>486.53</ele><time>2026-01-15T23:52:02.000Z</time></trkpt>
        <trkpt lat="28.9183036" lon="104.1704942"><ele>485.41</ele><time>2026-01-15T23:52:16.000Z</time></trkpt>
        <trkpt lat="28.9184028" lon="104.1704681"><ele>484.04</ele><time>2026-01-15T23:52:28.000Z</time></trkpt>
        <trkpt lat="28.9184955" lon="104.170426"><ele>482.52</ele><time>2026-01-15T23:52:40.000Z</time></trkpt>
        <trkpt lat="28.9185705" lon="104.1703616"><ele>481.53</ele><time>2026-01-15T23:52:56.000Z</time></trkpt>
        <trkpt lat="28.9186438" lon="104.1703003"><ele>480.76</ele><time>2026-01-15T23:53:12.000Z</time></trkpt>
        <trkpt lat="28.9186991" lon="104.1703498"><ele>479.37</ele><time>2026-01-15T23:54:00.000Z</time></trkpt>
        <trkpt lat="28.9187574" lon="104.1704324"><ele>474.87</ele><time>2026-01-15T23:54:28.000Z</time></trkpt>
        <trkpt lat="28.9188236" lon="104.1705135"><ele>469.96</ele><time>2026-01-15T23:54:42.000Z</time></trkpt>
        <trkpt lat="28.9189046" lon="104.1705082"><ele>466.91</ele><time>2026-01-15T23:54:58.000Z</time></trkpt>
        <trkpt lat="28.9189976" lon="104.1705042"><ele>463.15</ele><time>2026-01-15T23:55:26.000Z</time></trkpt>
        <trkpt lat="28.9190135" lon="104.170576"><ele>459.73</ele><time>2026-01-15T23:56:20.000Z</time></trkpt>
        <trkpt lat="28.9190437" lon="104.1706713"><ele>455.8</ele><time>2026-01-15T23:56:48.000Z</time></trkpt>
        <trkpt lat="28.919118" lon="104.1707158"><ele>451.69</ele><time>2026-01-15T23:57:10.000Z</time></trkpt>
        <trkpt lat="28.9191726" lon="104.1707952"><ele>447.23</ele><time>2026-01-15T23:57:36.000Z</time></trkpt>
        <trkpt lat="28.9192566" lon="104.1708155"><ele>442.02</ele><time>2026-01-15T23:58:13.000Z</time></trkpt>
        <trkpt lat="28.919285" lon="104.1708806"><ele>436.77</ele><time>2026-01-15T23:58:27.000Z</time></trkpt>
        <trkpt lat="28.9193057" lon="104.1709867"><ele>433.15</ele><time>2026-01-16T00:00:43.000Z</time></trkpt>
        <trkpt lat="28.9193771" lon="104.1710552"><ele>430.02</ele><time>2026-01-16T00:00:57.000Z</time></trkpt>
        <trkpt lat="28.91944" lon="104.1711387"><ele>426.6</ele><time>2026-01-16T00:01:11.000Z</time></trkpt>
        <trkpt lat="28.9195" lon="104.1712214"><ele>423.39</ele><time>2026-01-16T00:01:31.000Z</time></trkpt>
        <trkpt lat="28.919473" lon="104.1712985"><ele>420.42</ele><time>2026-01-16T00:01:53.000Z</time></trkpt>
        <trkpt lat="28.9194097" lon="104.1713768"><ele>416.3</ele><time>2026-01-16T00:02:13.000Z</time></trkpt>
        <trkpt lat="28.9193548" lon="104.1714669"><ele>412.26</ele><time>2026-01-16T00:02:29.000Z</time></trkpt>
        <trkpt lat="28.9193618" lon="104.1715746"><ele>409.42</ele><time>2026-01-16T00:02:41.000Z</time></trkpt>
        <trkpt lat="28.9194107" lon="104.1716752"><ele>407.33</ele><time>2026-01-16T00:02:57.000Z</time></trkpt>
        <trkpt lat="28.9195" lon="104.1717091"><ele>404.08</ele><time>2026-01-16T00:03:11.000Z</time></trkpt>
        <trkpt lat="28.9195955" lon="104.1717487"><ele>402.23</ele><time>2026-01-16T00:03:27.000Z</time></trkpt>
        <trkpt lat="28.9196231" lon="104.1718366"><ele>398.87</ele><time>2026-01-16T00:03:57.000Z</time></trkpt>
        <trkpt lat="28.9196374" lon="104.1719408"><ele>394.14</ele><time>2026-01-16T00:04:11.000Z</time></trkpt>
        <trkpt lat="28.9197085" lon="104.1719548"><ele>392.32</ele><time>2026-01-16T00:04:29.000Z</time></trkpt>
        <trkpt lat="28.9198017" lon="104.1719295"><ele>390.24</ele><time>2026-01-16T00:04:45.000Z</time></trkpt>
        <trkpt lat="28.9198017" lon="104.1719295"><ele>390.24</ele><time>2026-01-16T00:05:15.000Z</time></trkpt>
      </trkseg>
  </trk>
</gpx>